Observation data for Sweetwater on 08/12/2019      Previous  Date       Current Mesonet Observations  Soil Data  Daily Summary Page  Observations in Plain Language
KSW1 120500Z 16014KT 30/14 A2999 RMK A01 T03020137  RH  036%=      5-min Rain = 0
KSW1 120501Z 16012KT 30/14 A2999 RMK A01 T03020137  RH  037%=      5-min Rain = 0
KSW1 120502Z 16012KT 30/14 A2999 RMK A01 T03020138  RH  037%=      5-min Rain = 0
KSW1 120503Z 15012KT 30/14 A2999 RMK A01 T03010137  RH  037%=      5-min Rain = 0
KSW1 120504Z 16013G18KT 30/14 A2999 RMK A01 T03010138  RH  037%=      5-min Rain = 0
KSW1 120505Z 15012KT 30/14 A2999 RMK A01 T03010138  RH  037%=      5-min Rain = 0
KSW1 120506Z 16011KT 30/14 A2999 RMK A01 T03010138  RH  037%=      5-min Rain = 0
KSW1 120507Z 16012KT 30/14 A2999 RMK A01 T03000138  RH  037%=      5-min Rain = 0
KSW1 120508Z 16012KT 30/14 A2999 RMK A01 T03000138  RH  037%=      5-min Rain = 0
KSW1 120509Z 16012KT 30/14 A30 RMK A01 T02990138  RH  037%=      5-min Rain = 0
KSW1 120510Z 16011KT 30/14 A30 RMK A01 T02990138  RH  038%=      5-min Rain = 0
KSW1 120511Z 16011KT 30/14 A30 RMK A01 T02980138  RH  038%=      5-min Rain = 0
KSW1 120512Z 16012KT 30/14 A30 RMK A01 T02970139  RH  038%=      5-min Rain = 0
KSW1 120513Z 16011KT 30/14 A30 RMK A01 T02970139  RH  038%=      5-min Rain = 0
KSW1 120514Z 16010KT 30/14 A30 RMK A01 T02960139  RH  038%=      5-min Rain = 0
KSW1 120515Z 16011KT 30/14 A30 RMK A01 T02960139  RH  038%=      5-min Rain = 0
KSW1 120516Z 16012KT 30/14 A30 RMK A01 T02950139  RH  038%=      5-min Rain = 0
KSW1 120517Z 16011KT 30/14 A30 RMK A01 T02950139  RH  038%=      5-min Rain = 0
KSW1 120518Z 16011KT 29/14 A30 RMK A01 T02940139  RH  039%=      5-min Rain = 0
KSW1 120519Z 16012KT 29/14 A30 RMK A01 T02940139  RH  039%=      5-min Rain = 0
KSW1 120520Z 15012KT 29/14 A30 RMK A01 T02940139  RH  039%=      5-min Rain = 0
KSW1 120521Z 15011KT 29/14 A30 RMK A01 T02940140  RH  039%=      5-min Rain = 0
KSW1 120522Z 16012KT 29/14 A2999 RMK A01 T02930139  RH  039%=      5-min Rain = 0
KSW1 120523Z 16012KT 29/14 A30 RMK A01 T02930140  RH  039%=      5-min Rain = 0
KSW1 120524Z 16012KT 29/14 A2999 RMK A01 T02930140  RH  039%=      5-min Rain = 0
KSW1 120525Z 16012KT 29/14 A2999 RMK A01 T02930140  RH  039%=      5-min Rain = 0
KSW1 120526Z 16011KT 29/14 A2999 RMK A01 T02930140  RH  039%=      5-min Rain = 0
KSW1 120527Z 16012KT 29/14 A30 RMK A01 T02920140  RH  040%=      5-min Rain = 0
KSW1 120528Z 15010KT 29/14 A2999 RMK A01 T02910141  RH  040%=      5-min Rain = 0
KSW1 120529Z 15012KT 29/14 A2999 RMK A01 T02910141  RH  040%=      5-min Rain = 0
KSW1 120530Z 16012KT 29/14 A2999 RMK A01 T02910141  RH  040%=      5-min Rain = 0
KSW1 120531Z 16011KT 29/14 A2999 RMK A01 T02910141  RH  040%=      5-min Rain = 0
KSW1 120532Z 16012KT 29/14 A2999 RMK A01 T02910142  RH  040%=      5-min Rain = 0
KSW1 120533Z 16012KT 29/14 A2999 RMK A01 T02910142  RH  040%=      5-min Rain = 0
KSW1 120534Z 16013KT 29/14 A2999 RMK A01 T02910142  RH  040%=      5-min Rain = 0
KSW1 120535Z 16013KT 29/14 A2999 RMK A01 T02920143  RH  040%=      5-min Rain = 0
KSW1 120536Z 16012KT 29/14 A2999 RMK A01 T02930143  RH  040%=      5-min Rain = 0
KSW1 120537Z 17012KT 29/14 A2999 RMK A01 T02930143  RH  040%=      5-min Rain = 0
KSW1 120538Z 16012KT 29/14 A2999 RMK A01 T02930143  RH  040%=      5-min Rain = 0
KSW1 120539Z 16011KT 29/14 A2999 RMK A01 T02930144  RH  040%=      5-min Rain = 0
KSW1 120540Z 16010KT 29/14 A2999 RMK A01 T02930144  RH  040%=      5-min Rain = 0
KSW1 120541Z 16011KT 29/14 A2999 RMK A01 T02920144  RH  040%=      5-min Rain = 0
KSW1 120542Z 16011KT 29/14 A2999 RMK A01 T02920144  RH  041%=      5-min Rain = 0
KSW1 120543Z 16012KT 29/14 A2999 RMK A01 T02920144  RH  041%=      5-min Rain = 0
KSW1 120544Z 16012KT 29/14 A2999 RMK A01 T02920144  RH  041%=      5-min Rain = 0
KSW1 120545Z 16013KT 29/15 A2999 RMK A01 T02920145  RH  041%=      5-min Rain = 0
KSW1 120546Z 16011KT 29/14 A2999 RMK A01 T02920144  RH  041%=      5-min Rain = 0
KSW1 120547Z 16013KT 29/15 A2999 RMK A01 T02920145  RH  041%=      5-min Rain = 0
KSW1 120548Z 16012KT 29/15 A2999 RMK A01 T02920145  RH  041%=      5-min Rain = 0
KSW1 120549Z 16012KT 29/15 A2999 RMK A01 T02920145  RH  041%=      5-min Rain = 0
KSW1 120550Z 16012KT 29/15 A2999 RMK A01 T02920146  RH  041%=      5-min Rain = 0
KSW1 120551Z 16012KT 29/15 A2999 RMK A01 T02920145  RH  041%=      5-min Rain = 0
KSW1 120552Z 16010KT 29/15 A2999 RMK A01 T02910145  RH  041%=      5-min Rain = 0
KSW1 120553Z 16012KT 29/15 A2999 RMK A01 T02910146  RH  041%=      5-min Rain = 0
KSW1 120554Z 16011KT 29/15 A2999 RMK A01 T02900146  RH  041%=      5-min Rain = 0
KSW1 120555Z 16011KT 29/15 A2999 RMK A01 T02900146  RH  041%=      5-min Rain = 0
KSW1 120556Z 16010KT 29/15 A2999 RMK A01 T02890146  RH  042%=      5-min Rain = 0
KSW1 120557Z 16012KT 29/15 A2999 RMK A01 T02890146  RH  042%=      5-min Rain = 0
KSW1 120558Z 16010KT 29/15 A2999 RMK A01 T02890146  RH  042%=      5-min Rain = 0
KSW1 120559Z 16011KT 29/15 A2999 RMK A01 T02890146  RH  042%=      5-min Rain = 0
KSW1 120600Z 16010KT 29/15 A2999 RMK A01 T02880146  RH  042%=      5-min Rain = 0
KSW1 120601Z 16010KT 29/15 A2999 RMK A01 T02870146  RH  042%=      5-min Rain = 0
KSW1 120602Z 15011KT 29/15 A2999 RMK A01 T02870147  RH  042%=      5-min Rain = 0
KSW1 120603Z 15011KT 29/15 A2999 RMK A01 T02870147  RH  042%=      5-min Rain = 0
KSW1 120604Z 15011KT 29/15 A2999 RMK A01 T02860147  RH  042%=      5-min Rain = 0
KSW1 120605Z 16011KT 29/15 A2999 RMK A01 T02860147  RH  043%=      5-min Rain = 0
KSW1 120606Z 16011KT 29/15 A2999 RMK A01 T02860147  RH  043%=      5-min Rain = 0
KSW1 120607Z 15012KT 29/15 A2999 RMK A01 T02850147  RH  043%=      5-min Rain = 0
KSW1 120608Z 16011KT 29/15 A2999 RMK A01 T02850147  RH  043%=      5-min Rain = 0
KSW1 120609Z 15012KT 29/15 A2999 RMK A01 T02850147  RH  043%=      5-min Rain = 0
KSW1 120610Z 15011KT 29/15 A2999 RMK A01 T02850147  RH  043%=      5-min Rain = 0
KSW1 120611Z 15011KT 29/15 A2999 RMK A01 T02850147  RH  043%=      5-min Rain = 0
KSW1 120612Z 16010KT 29/15 A2999 RMK A01 T02850147  RH  043%=      5-min Rain = 0
KSW1 120613Z 15011KT 28/15 A2999 RMK A01 T02840147  RH  043%=      5-min Rain = 0
KSW1 120614Z 16011KT 28/15 A2999 RMK A01 T02840147  RH  043%=      5-min Rain = 0
KSW1 120615Z 16010KT 28/15 A2999 RMK A01 T02840147  RH  043%=      5-min Rain = 0
KSW1 120616Z 16011KT 28/15 A2999 RMK A01 T02840148  RH  043%=      5-min Rain = 0
KSW1 120617Z 15011KT 28/15 A2999 RMK A01 T02840148  RH  043%=      5-min Rain = 0
KSW1 120618Z 16010KT 28/15 A2999 RMK A01 T02840148  RH  043%=      5-min Rain = 0
KSW1 120619Z 15010KT 28/15 A2999 RMK A01 T02840148  RH  043%=      5-min Rain = 0
KSW1 120620Z 16011KT 28/15 A2999 RMK A01 T02830148  RH  044%=      5-min Rain = 0
KSW1 120621Z 16010KT 28/15 A2999 RMK A01 T02830147  RH  044%=      5-min Rain = 0
KSW1 120622Z 15010KT 28/15 A2999 RMK A01 T02830148  RH  044%=      5-min Rain = 0
KSW1 120623Z 15011KT 28/15 A2999 RMK A01 T02820148  RH  044%=      5-min Rain = 0
KSW1 120624Z 15011KT 28/15 A2999 RMK A01 T02820148  RH  044%=      5-min Rain = 0
KSW1 120625Z 16010KT 28/15 A2999 RMK A01 T02820148  RH  044%=      5-min Rain = 0
KSW1 120626Z 16011KT 28/15 A2999 RMK A01 T02820148  RH  044%=      5-min Rain = 0
KSW1 120627Z 16012KT 28/15 A2999 RMK A01 T02820148  RH  044%=      5-min Rain = 0
KSW1 120628Z 15010KT 28/15 A2999 RMK A01 T02820148  RH  044%=      5-min Rain = 0
KSW1 120629Z 16011KT 28/15 A2999 RMK A01 T02810148  RH  044%=      5-min Rain = 0
KSW1 120630Z 16011KT 28/15 A2999 RMK A01 T02810148  RH  044%=      5-min Rain = 0
KSW1 120631Z 16011KT 28/15 A2999 RMK A01 T02810148  RH  044%=      5-min Rain = 0
KSW1 120632Z 16011KT 28/15 A2999 RMK A01 T02810148  RH  044%=      5-min Rain = 0
KSW1 120633Z 16011KT 28/15 A2999 RMK A01 T02800148  RH  045%=      5-min Rain = 0
KSW1 120634Z 16011KT 28/15 A2999 RMK A01 T02800149  RH  045%=      5-min Rain = 0
KSW1 120635Z 16011KT 28/15 A2999 RMK A01 T02800149  RH  045%=      5-min Rain = 0
KSW1 120636Z 16011KT 28/15 A2999 RMK A01 T02800149  RH  045%=      5-min Rain = 0
KSW1 120637Z 16010KT 28/15 A2999 RMK A01 T02800149  RH  045%=      5-min Rain = 0
KSW1 120638Z 16010KT 28/15 A2999 RMK A01 T02800149  RH  045%=      5-min Rain = 0
KSW1 120639Z 16010KT 28/15 A2999 RMK A01 T02800149  RH  045%=      5-min Rain = 0
KSW1 120640Z 16009KT 28/15 A2999 RMK A01 T02790149  RH  045%=      5-min Rain = 0
KSW1 120641Z 16010KT 28/15 A2999 RMK A01 T02790149  RH  045%=      5-min Rain = 0
KSW1 120642Z 16010KT 28/15 A2999 RMK A01 T02790149  RH  045%=      5-min Rain = 0
KSW1 120643Z 16010KT 28/15 A2999 RMK A01 T02790149  RH  045%=      5-min Rain = 0
KSW1 120644Z 16011KT 28/15 A2999 RMK A01 T02790149  RH  045%=      5-min Rain = 0
KSW1 120645Z 16011KT 28/15 A2998 RMK A01 T02800149  RH  045%=      5-min Rain = 0
KSW1 120646Z 16010KT 28/15 A2998 RMK A01 T02800150  RH  045%=      5-min Rain = 0
KSW1 120647Z 16010KT 28/15 A2998 RMK A01 T02800150  RH  045%=      5-min Rain = 0
KSW1 120648Z 16010KT 28/15 A2998 RMK A01 T02790150  RH  045%=      5-min Rain = 0
KSW1 120649Z 16011KT 28/15 A2998 RMK A01 T02790150  RH  045%=      5-min Rain = 0
KSW1 120650Z 16010KT 28/15 A2998 RMK A01 T02790150  RH  045%=      5-min Rain = 0
KSW1 120651Z 16010KT 28/15 A2998 RMK A01 T02790150  RH  045%=      5-min Rain = 0
KSW1 120652Z 15011KT 28/15 A2998 RMK A01 T02790150  RH  045%=      5-min Rain = 0
KSW1 120653Z 15011KT 28/15 A2998 RMK A01 T02780150  RH  046%=      5-min Rain = 0
KSW1 120654Z 15011KT 28/15 A2998 RMK A01 T02780150  RH  046%=      5-min Rain = 0
KSW1 120655Z 16010KT 28/15 A2998 RMK A01 T02780150  RH  046%=      5-min Rain = 0
KSW1 120656Z 15011KT 28/15 A2998 RMK A01 T02770150  RH  046%=      5-min Rain = 0
KSW1 120657Z 15012KT 28/15 A2998 RMK A01 T02770150  RH  046%=      5-min Rain = 0
KSW1 120658Z 15012KT 28/15 A2998 RMK A01 T02770150  RH  046%=      5-min Rain = 0
KSW1 120659Z 15012KT 28/15 A2998 RMK A01 T02770150  RH  046%=      5-min Rain = 0
KSW1 120700Z 15013KT 28/15 A2997 RMK A01 T02780151  RH  046%=      5-min Rain = 0
KSW1 120701Z 14013KT 28/15 A2997 RMK A01 T02770150  RH  046%=      5-min Rain = 0
KSW1 120702Z 15013KT 28/15 A2997 RMK A01 T02780151  RH  046%=      5-min Rain = 0
KSW1 120703Z 14012KT 28/15 A2997 RMK A01 T02780150  RH  046%=      5-min Rain = 0
KSW1 120704Z 15014KT 28/15 A2997 RMK A01 T02790151  RH  046%=      5-min Rain = 0
KSW1 120705Z 15014KT 28/15 A2997 RMK A01 T02790151  RH  046%=      5-min Rain = 0
KSW1 120706Z 15012KT 28/15 A2997 RMK A01 T02800151  RH  045%=      5-min Rain = 0
KSW1 120707Z 16013KT 28/15 A2997 RMK A01 T02810151  RH  045%=      5-min Rain = 0
KSW1 120708Z 16012KT 28/15 A2997 RMK A01 T02810152  RH  045%=      5-min Rain = 0
KSW1 120709Z 16012KT 28/15 A2997 RMK A01 T02810151  RH  045%=      5-min Rain = 0
KSW1 120710Z 16011KT 28/15 A2997 RMK A01 T02810152  RH  045%=      5-min Rain = 0
KSW1 120711Z 16013KT 28/15 A2997 RMK A01 T02810152  RH  045%=      5-min Rain = 0
KSW1 120712Z 16013KT 28/15 A2997 RMK A01 T02810153  RH  046%=      5-min Rain = 0
KSW1 120713Z 16014KT 28/15 A2997 RMK A01 T02810153  RH  046%=      5-min Rain = 0
KSW1 120714Z 16012KT 28/15 A2997 RMK A01 T02800153  RH  046%=      5-min Rain = 0
KSW1 120715Z 16012KT 28/15 A2997 RMK A01 T02810153  RH  046%=      5-min Rain = 0
KSW1 120716Z 15012G19KT 28/15 A2997 RMK A01 T02800153  RH  046%=      5-min Rain = 0
KSW1 120717Z 16014KT 28/15 A2997 RMK A01 T02790154  RH  046%=      5-min Rain = 0
KSW1 120718Z 15013KT 28/15 A2997 RMK A01 T02800154  RH  046%=      5-min Rain = 0
KSW1 120719Z 16013KT 28/15 A2997 RMK A01 T02800154  RH  046%=      5-min Rain = 0
KSW1 120720Z 16014KT 28/16 A2997 RMK A01 T02810155  RH  046%=      5-min Rain = 0
KSW1 120721Z 16013G18KT 28/16 A2997 RMK A01 T02820155  RH  046%=      5-min Rain = 0
KSW1 120722Z 16014KT 28/16 A2997 RMK A01 T02830156  RH  046%=      5-min Rain = 0
KSW1 120723Z 16014KT 28/16 A2997 RMK A01 T02830156  RH  046%=      5-min Rain = 0
KSW1 120724Z 16011KT 28/16 A2997 RMK A01 T02830156  RH  046%=      5-min Rain = 0
KSW1 120725Z 16012KT 28/16 A2998 RMK A01 T02830156  RH  046%=      5-min Rain = 0
KSW1 120726Z 16012KT 28/16 A2998 RMK A01 T02820156  RH  046%=      5-min Rain = 0
KSW1 120727Z 16013KT 28/16 A2998 RMK A01 T02820156  RH  046%=      5-min Rain = 0
KSW1 120728Z 16011KT 28/16 A2998 RMK A01 T02810156  RH  046%=      5-min Rain = 0
KSW1 120729Z 16011KT 28/16 A2998 RMK A01 T02810156  RH  046%=      5-min Rain = 0
KSW1 120730Z 16014KT 28/16 A2998 RMK A01 T02810156  RH  047%=      5-min Rain = 0
KSW1 120731Z 16013KT 28/16 A2998 RMK A01 T02810156  RH  047%=      5-min Rain = 0
KSW1 120732Z 16013KT 28/16 A2998 RMK A01 T02810156  RH  047%=      5-min Rain = 0
KSW1 120733Z 16011KT 28/16 A2998 RMK A01 T02810156  RH  046%=      5-min Rain = 0
KSW1 120734Z 16010KT 28/16 A2998 RMK A01 T02810156  RH  047%=      5-min Rain = 0
KSW1 120735Z 16011KT 28/16 A2998 RMK A01 T02800156  RH  047%=      5-min Rain = 0
KSW1 120736Z 17012KT 28/16 A2998 RMK A01 T02790156  RH  047%=      5-min Rain = 0
KSW1 120737Z 17012KT 28/16 A2998 RMK A01 T02790156  RH  047%=      5-min Rain = 0
KSW1 120738Z 16012KT 28/16 A2998 RMK A01 T02800156  RH  047%=      5-min Rain = 0
KSW1 120739Z 16011KT 28/16 A2998 RMK A01 T02800156  RH  047%=      5-min Rain = 0
KSW1 120740Z 16010KT 28/16 A2998 RMK A01 T02800156  RH  047%=      5-min Rain = 0
KSW1 120741Z 16014KT 28/16 A2998 RMK A01 T02790156  RH  047%=      5-min Rain = 0
KSW1 120742Z 16011KT 28/16 A2998 RMK A01 T02790157  RH  047%=      5-min Rain = 0
KSW1 120743Z 16010KT 28/16 A2998 RMK A01 T02790157  RH  047%=      5-min Rain = 0
KSW1 120744Z 16011KT 28/16 A2998 RMK A01 T02790157  RH  047%=      5-min Rain = 0
KSW1 120745Z 16011KT 28/16 A2998 RMK A01 T02790157  RH  047%=      5-min Rain = 0
KSW1 120746Z 16010KT 28/16 A2998 RMK A01 T02790157  RH  047%=      5-min Rain = 0
KSW1 120747Z 16012KT 28/16 A2998 RMK A01 T02790157  RH  047%=      5-min Rain = 0
KSW1 120748Z 16011KT 28/16 A2998 RMK A01 T02790157  RH  047%=      5-min Rain = 0
KSW1 120749Z 16011G17KT 28/16 A2998 RMK A01 T02790157  RH  047%=      5-min Rain = 0
KSW1 120750Z 16012KT 28/16 A2998 RMK A01 T02790157  RH  047%=      5-min Rain = 0
KSW1 120751Z 16012KT 28/16 A2998 RMK A01 T02790157  RH  047%=      5-min Rain = 0
KSW1 120752Z 17013KT 28/16 A2998 RMK A01 T02790157  RH  047%=      5-min Rain = 0
KSW1 120753Z 16011KT 28/16 A2998 RMK A01 T02790157  RH  047%=      5-min Rain = 0
KSW1 120754Z 17011KT 28/16 A2998 RMK A01 T02800157  RH  047%=      5-min Rain = 0
KSW1 120755Z 17011KT 28/16 A2998 RMK A01 T02790157  RH  047%=      5-min Rain = 0
KSW1 120756Z 17012KT 28/16 A2998 RMK A01 T02790158  RH  048%=      5-min Rain = 0
KSW1 120757Z 17011KT 28/16 A2998 RMK A01 T02780157  RH  048%=      5-min Rain = 0
KSW1 120758Z 17010KT 28/16 A2999 RMK A01 T02780157  RH  048%=      5-min Rain = 0
KSW1 120759Z 17009KT 28/16 A2999 RMK A01 T02780157  RH  048%=      5-min Rain = 0
KSW1 120800Z 17011KT 28/16 A2999 RMK A01 T02770157  RH  048%=      5-min Rain = 0
KSW1 120801Z 17010KT 28/16 A2999 RMK A01 T02770157  RH  048%=      5-min Rain = 0
KSW1 120802Z 17010KT 28/16 A2999 RMK A01 T02770157  RH  048%=      5-min Rain = 0
KSW1 120803Z 17009KT 28/16 A2999 RMK A01 T02770157  RH  048%=      5-min Rain = 0
KSW1 120804Z 16010KT 28/16 A2999 RMK A01 T02760157  RH  048%=      5-min Rain = 0
KSW1 120805Z 17011KT 28/16 A2998 RMK A01 T02750158  RH  049%=      5-min Rain = 0
KSW1 120806Z 16009KT 28/16 A2998 RMK A01 T02750158  RH  049%=      5-min Rain = 0
KSW1 120807Z 16009KT 27/16 A2998 RMK A01 T02740157  RH  049%=      5-min Rain = 0
KSW1 120808Z 16009KT 27/16 A2998 RMK A01 T02730157  RH  049%=      5-min Rain = 0
KSW1 120809Z 16010KT 27/16 A2998 RMK A01 T02730157  RH  049%=      5-min Rain = 0
KSW1 120810Z 16010KT 27/16 A2998 RMK A01 T02720157  RH  049%=      5-min Rain = 0
KSW1 120811Z 16010KT 27/16 A2998 RMK A01 T02710157  RH  050%=      5-min Rain = 0
KSW1 120812Z 15010KT 27/16 A2998 RMK A01 T02700157  RH  050%=      5-min Rain = 0
KSW1 120813Z 15011KT 27/16 A2998 RMK A01 T02700157  RH  050%=      5-min Rain = 0
KSW1 120814Z 15011KT 27/16 A2998 RMK A01 T02690157  RH  050%=      5-min Rain = 0
KSW1 120815Z 15010KT 27/16 A2998 RMK A01 T02690157  RH  050%=      5-min Rain = 0
KSW1 120816Z 16012KT 27/16 A2998 RMK A01 T02690157  RH  050%=      5-min Rain = 0
KSW1 120817Z 15010KT 27/16 A2998 RMK A01 T02690157  RH  050%=      5-min Rain = 0
KSW1 120818Z 15011KT 27/16 A2998 RMK A01 T02690158  RH  051%=      5-min Rain = 0
KSW1 120819Z 16012KT 27/16 A2998 RMK A01 T02680158  RH  051%=      5-min Rain = 0
KSW1 120820Z 15010KT 27/16 A2998 RMK A01 T02680158  RH  051%=      5-min Rain = 0
KSW1 120821Z 15010KT 27/16 A2998 RMK A01 T02680158  RH  051%=      5-min Rain = 0
KSW1 120822Z 15010KT 27/16 A2998 RMK A01 T02670158  RH  051%=      5-min Rain = 0
KSW1 120823Z 15010KT 27/16 A2998 RMK A01 T02660157  RH  051%=      5-min Rain = 0
KSW1 120824Z 15010KT 27/16 A2998 RMK A01 T02660157  RH  051%=      5-min Rain = 0
KSW1 120825Z 15011KT 27/16 A2998 RMK A01 T02660158  RH  051%=      5-min Rain = 0
KSW1 120826Z 15010KT 27/16 A2998 RMK A01 T02650158  RH  052%=      5-min Rain = 0
KSW1 120827Z 15011KT 27/16 A2998 RMK A01 T02660158  RH  051%=      5-min Rain = 0
KSW1 120828Z 15011KT 27/16 A2998 RMK A01 T02660158  RH  052%=      5-min Rain = 0
KSW1 120829Z 16010KT 27/16 A2998 RMK A01 T02650158  RH  052%=      5-min Rain = 0
KSW1 120830Z 16010KT 27/16 A2999 RMK A01 T02650158  RH  052%=      5-min Rain = 0
KSW1 120831Z 15010KT 27/16 A2999 RMK A01 T02650158  RH  052%=      5-min Rain = 0
KSW1 120832Z 16010KT 27/16 A2998 RMK A01 T02650158  RH  052%=      5-min Rain = 0
KSW1 120833Z 16010KT 27/16 A2998 RMK A01 T02650158  RH  052%=      5-min Rain = 0
KSW1 120834Z 15011KT 27/16 A2998 RMK A01 T02650158  RH  052%=      5-min Rain = 0
KSW1 120835Z 16010KT 27/16 A2998 RMK A01 T02650158  RH  052%=      5-min Rain = 0
KSW1 120836Z 15010KT 27/16 A2998 RMK A01 T02650158  RH  052%=      5-min Rain = 0
KSW1 120837Z 16011KT 27/16 A2998 RMK A01 T02650158  RH  052%=      5-min Rain = 0
KSW1 120838Z 16010KT 27/16 A2998 RMK A01 T02650158  RH  052%=      5-min Rain = 0
KSW1 120839Z 16010KT 26/16 A2998 RMK A01 T02640158  RH  052%=      5-min Rain = 0
KSW1 120840Z 15011KT 26/16 A2998 RMK A01 T02640158  RH  052%=      5-min Rain = 0
KSW1 120841Z 16010KT 26/16 A2998 RMK A01 T02640158  RH  052%=      5-min Rain = 0
KSW1 120842Z 16010KT 26/16 A2998 RMK A01 T02640158  RH  052%=      5-min Rain = 0
KSW1 120843Z 16010KT 26/16 A2998 RMK A01 T02630158  RH  052%=      5-min Rain = 0
KSW1 120844Z 16010KT 26/16 A2998 RMK A01 T02630158  RH  053%=      5-min Rain = 0
KSW1 120845Z 16010KT 26/16 A2998 RMK A01 T02620158  RH  053%=      5-min Rain = 0
KSW1 120846Z 16011KT 26/16 A2998 RMK A01 T02620158  RH  053%=      5-min Rain = 0
KSW1 120847Z 16010KT 26/16 A2998 RMK A01 T02610158  RH  053%=      5-min Rain = 0
KSW1 120848Z 16011KT 26/16 A2998 RMK A01 T02610159  RH  053%=      5-min Rain = 0
KSW1 120849Z 16009KT 26/16 A2998 RMK A01 T02610158  RH  053%=      5-min Rain = 0
KSW1 120850Z 17010KT 26/16 A2998 RMK A01 T02610159  RH  053%=      5-min Rain = 0
KSW1 120851Z 17009KT 26/16 A2998 RMK A01 T02600159  RH  054%=      5-min Rain = 0
KSW1 120852Z 17009KT 26/16 A2998 RMK A01 T02600159  RH  054%=      5-min Rain = 0
KSW1 120853Z 17008KT 26/16 A2998 RMK A01 T02600159  RH  054%=      5-min Rain = 0
KSW1 120854Z 17010KT 26/16 A2998 RMK A01 T02600160  RH  054%=      5-min Rain = 0
KSW1 120855Z 17009KT 26/16 A2998 RMK A01 T02600160  RH  054%=      5-min Rain = 0
KSW1 120856Z 17011KT 26/16 A2998 RMK A01 T02610160  RH  054%=      5-min Rain = 0
KSW1 120857Z 17010KT 26/16 A2998 RMK A01 T02630161  RH  054%=      5-min Rain = 0
KSW1 120858Z 17012KT 26/16 A2998 RMK A01 T02640162  RH  053%=      5-min Rain = 0
KSW1 120859Z 17010KT 27/16 A2998 RMK A01 T02660162  RH  053%=      5-min Rain = 0
KSW1 120900Z 18011KT 27/16 A2998 RMK A01 T02670163  RH  053%=      5-min Rain = 0
KSW1 120901Z 17012KT 27/16 A2998 RMK A01 T02680163  RH  053%=      5-min Rain = 0
KSW1 120902Z 18011KT 27/16 A2998 RMK A01 T02690163  RH  052%=      5-min Rain = 0
KSW1 120903Z 17012KT 27/16 A2998 RMK A01 T02700164  RH  052%=      5-min Rain = 0
KSW1 120904Z 18011KT 27/16 A2998 RMK A01 T02710164  RH  052%=      5-min Rain = 0
KSW1 120905Z 17012KT 27/16 A2998 RMK A01 T02710164  RH  052%=      5-min Rain = 0
KSW1 120906Z 18011KT 27/16 A2998 RMK A01 T02710164  RH  052%=      5-min Rain = 0
KSW1 120907Z 18012KT 27/16 A2998 RMK A01 T02710164  RH  052%=      5-min Rain = 0
KSW1 120908Z 18012KT 27/17 A2998 RMK A01 T02720165  RH  052%=      5-min Rain = 0
KSW1 120909Z 18011KT 27/17 A2998 RMK A01 T02720165  RH  052%=      5-min Rain = 0
KSW1 120910Z 18012KT 27/17 A2998 RMK A01 T02720165  RH  052%=      5-min Rain = 0
KSW1 120911Z 18012KT 27/17 A2998 RMK A01 T02720165  RH  052%=      5-min Rain = 0
KSW1 120912Z 18012KT 27/17 A2998 RMK A01 T02720165  RH  052%=      5-min Rain = 0
KSW1 120913Z 18011KT 27/17 A2998 RMK A01 T02720165  RH  052%=      5-min Rain = 0
KSW1 120914Z 18011KT 27/17 A2998 RMK A01 T02710165  RH  052%=      5-min Rain = 0
KSW1 120915Z 18012KT 27/17 A2998 RMK A01 T02720166  RH  052%=      5-min Rain = 0
KSW1 120916Z 18012KT 27/17 A2998 RMK A01 T02720166  RH  052%=      5-min Rain = 0
KSW1 120917Z 18011KT 27/17 A2998 RMK A01 T02710166  RH  052%=      5-min Rain = 0
KSW1 120918Z 18011G16KT 27/17 A2998 RMK A01 T02710166  RH  052%=      5-min Rain = 0
KSW1 120919Z 18010KT 27/17 A2998 RMK A01 T02710166  RH  053%=      5-min Rain = 0
KSW1 120920Z 18013KT 27/17 A2998 RMK A01 T02710166  RH  053%=      5-min Rain = 0
KSW1 120921Z 18012KT 27/17 A2998 RMK A01 T02710166  RH  053%=      5-min Rain = 0
KSW1 120922Z 18011KT 27/17 A2998 RMK A01 T02710166  RH  053%=      5-min Rain = 0
KSW1 120923Z 18012KT 27/17 A2998 RMK A01 T02710166  RH  053%=      5-min Rain = 0
KSW1 120924Z 18013KT 27/17 A2998 RMK A01 T02710167  RH  053%=      5-min Rain = 0
KSW1 120925Z 18012KT 27/17 A2998 RMK A01 T02710167  RH  053%=      5-min Rain = 0
KSW1 120926Z 18011KT 27/17 A2998 RMK A01 T02710167  RH  053%=      5-min Rain = 0
KSW1 120927Z 18012KT 27/17 A2998 RMK A01 T02700167  RH  053%=      5-min Rain = 0
KSW1 120928Z 18011KT 27/17 A2998 RMK A01 T02700167  RH  053%=      5-min Rain = 0
KSW1 120929Z 18011KT 27/17 A2998 RMK A01 T02700167  RH  053%=      5-min Rain = 0
KSW1 120930Z 18011KT 27/17 A2998 RMK A01 T02700168  RH  054%=      5-min Rain = 0
KSW1 120931Z 17011KT 27/17 A2998 RMK A01 T02700168  RH  054%=      5-min Rain = 0
KSW1 120932Z 18012KT 27/17 A2998 RMK A01 T02700168  RH  054%=      5-min Rain = 0
KSW1 120933Z 18010KT 27/17 A2998 RMK A01 T02690168  RH  054%=      5-min Rain = 0
KSW1 120934Z 18011KT 27/17 A2998 RMK A01 T02690168  RH  054%=      5-min Rain = 0
KSW1 120935Z 17012KT 27/17 A2998 RMK A01 T02680168  RH  054%=      5-min Rain = 0
KSW1 120936Z 18012KT 27/17 A2998 RMK A01 T02680169  RH  054%=      5-min Rain = 0
KSW1 120937Z 18014KT 27/17 A2998 RMK A01 T02680168  RH  054%=      5-min Rain = 0
KSW1 120938Z 17012KT 27/17 A2998 RMK A01 T02690169  RH  054%=      5-min Rain = 0
KSW1 120939Z 18010KT 27/17 A2998 RMK A01 T02690169  RH  054%=      5-min Rain = 0
KSW1 120940Z 18012KT 27/17 A2998 RMK A01 T02690169  RH  054%=      5-min Rain = 0
KSW1 120941Z 17011KT 27/17 A2998 RMK A01 T02680169  RH  055%=      5-min Rain = 0
KSW1 120942Z 17011KT 27/17 A2998 RMK A01 T02680170  RH  055%=      5-min Rain = 0
KSW1 120943Z 18012KT 27/17 A2998 RMK A01 T02680170  RH  055%=      5-min Rain = 0
KSW1 120944Z 18011KT 27/17 A2998 RMK A01 T02680170  RH  055%=      5-min Rain = 0
KSW1 120945Z 18012KT 27/17 A2998 RMK A01 T02680170  RH  055%=      5-min Rain = 0
KSW1 120946Z 17011G16KT 27/17 A2998 RMK A01 T02680170  RH  055%=      5-min Rain = 0
KSW1 120947Z 18011KT 27/17 A2998 RMK A01 T02680171  RH  055%=      5-min Rain = 0
KSW1 120948Z 18010KT 27/17 A2998 RMK A01 T02680171  RH  055%=      5-min Rain = 0
KSW1 120949Z 17012KT 27/17 A2998 RMK A01 T02680171  RH  055%=      5-min Rain = 0
KSW1 120950Z 17011KT 27/17 A2998 RMK A01 T02680172  RH  056%=      5-min Rain = 0
KSW1 120951Z 17010KT 27/17 A2998 RMK A01 T02680171  RH  055%=      5-min Rain = 0
KSW1 120952Z 17012KT 27/17 A2998 RMK A01 T02680172  RH  056%=      5-min Rain = 0
KSW1 120953Z 17011KT 27/17 A2998 RMK A01 T02680172  RH  056%=      5-min Rain = 0
KSW1 120954Z 17011KT 27/17 A2998 RMK A01 T02670172  RH  056%=      5-min Rain = 0
KSW1 120955Z 17011KT 27/17 A2998 RMK A01 T02670172  RH  056%=      5-min Rain = 0
KSW1 120956Z 17010KT 27/17 A2998 RMK A01 T02670172  RH  056%=      5-min Rain = 0
KSW1 120957Z 17009KT 27/17 A2998 RMK A01 T02670172  RH  056%=      5-min Rain = 0
KSW1 120958Z 18010KT 27/17 A2998 RMK A01 T02670172  RH  056%=      5-min Rain = 0
KSW1 120959Z 17010KT 27/17 A2998 RMK A01 T02670173  RH  056%=      5-min Rain = 0
KSW1 121000Z 17011KT 27/17 A2998 RMK A01 T02670172  RH  056%=      5-min Rain = 0
KSW1 121001Z 16011KT 27/17 A2998 RMK A01 T02670173  RH  056%=      5-min Rain = 0
KSW1 121002Z 17009KT 27/17 A2998 RMK A01 T02670173  RH  056%=      5-min Rain = 0
KSW1 121003Z 17010KT 27/17 A2998 RMK A01 T02660173  RH  056%=      5-min Rain = 0
KSW1 121004Z 17010KT 27/17 A2998 RMK A01 T02660173  RH  057%=      5-min Rain = 0
KSW1 121005Z 17010KT 27/17 A2998 RMK A01 T02660174  RH  057%=      5-min Rain = 0
KSW1 121006Z 17011KT 27/17 A2998 RMK A01 T02660174  RH  057%=      5-min Rain = 0
KSW1 121007Z 17011KT 27/17 A2998 RMK A01 T02670174  RH  057%=      5-min Rain = 0
KSW1 121008Z 17009KT 27/17 A2998 RMK A01 T02670174  RH  057%=      5-min Rain = 0
KSW1 121009Z 17009KT 27/17 A2998 RMK A01 T02660174  RH  057%=      5-min Rain = 0
KSW1 121010Z 17009KT 27/17 A2998 RMK A01 T02650174  RH  057%=      5-min Rain = 0
KSW1 121011Z 17010KT 27/18 A2998 RMK A01 T02650175  RH  058%=      5-min Rain = 0
KSW1 121012Z 17011KT 27/18 A2998 RMK A01 T02650175  RH  058%=      5-min Rain = 0
KSW1 121013Z 17010KT 27/18 A2998 RMK A01 T02650176  RH  058%=      5-min Rain = 0
KSW1 121014Z 17011KT 27/18 A2998 RMK A01 T02650176  RH  058%=      5-min Rain = 0
KSW1 121015Z 17012KT 27/18 A2998 RMK A01 T02650176  RH  058%=      5-min Rain = 0
KSW1 121016Z 17010KT 27/18 A2998 RMK A01 T02660177  RH  058%=      5-min Rain = 0
KSW1 121017Z 18010KT 27/18 A2998 RMK A01 T02660177  RH  058%=      5-min Rain = 0
KSW1 121018Z 18013KT 27/18 A2998 RMK A01 T02660178  RH  058%=      5-min Rain = 0
KSW1 121019Z 17010G16KT 27/18 A2998 RMK A01 T02660178  RH  058%=      5-min Rain = 0
KSW1 121020Z 17012KT 27/18 A2997 RMK A01 T02660179  RH  059%=      5-min Rain = 0
KSW1 121021Z 17011KT 27/18 A2997 RMK A01 T02670179  RH  058%=      5-min Rain = 0
KSW1 121022Z 17011KT 27/18 A2997 RMK A01 T02670179  RH  059%=      5-min Rain = 0
KSW1 121023Z 17012KT 27/18 A2997 RMK A01 T02660179  RH  059%=      5-min Rain = 0
KSW1 121024Z 17010KT 27/18 A2998 RMK A01 T02670180  RH  059%=      5-min Rain = 0
KSW1 121025Z 17011KT 27/18 A2998 RMK A01 T02660180  RH  059%=      5-min Rain = 0
KSW1 121026Z 17012KT 27/18 A2998 RMK A01 T02660181  RH  059%=      5-min Rain = 0
KSW1 121027Z 18010KT 27/18 A2998 RMK A01 T02660181  RH  059%=      5-min Rain = 0
KSW1 121028Z 17010KT 27/18 A2998 RMK A01 T02660181  RH  059%=      5-min Rain = 0
KSW1 121029Z 17011KT 27/18 A2997 RMK A01 T02660182  RH  060%=      5-min Rain = 0
KSW1 121030Z 17011KT 27/18 A2998 RMK A01 T02660181  RH  060%=      5-min Rain = 0
KSW1 121031Z 17010KT 27/18 A2998 RMK A01 T02660182  RH  060%=      5-min Rain = 0
KSW1 121032Z 17014KT 27/18 A2997 RMK A01 T02660183  RH  060%=      5-min Rain = 0
KSW1 121033Z 18011KT 27/18 A2997 RMK A01 T02660183  RH  060%=      5-min Rain = 0
KSW1 121034Z 18010KT 27/18 A2997 RMK A01 T02670183  RH  060%=      5-min Rain = 0
KSW1 121035Z 17013KT 27/18 A2997 RMK A01 T02670183  RH  060%=      5-min Rain = 0
KSW1 121036Z 17012KT 27/18 A2997 RMK A01 T02670184  RH  060%=      5-min Rain = 0
KSW1 121037Z 17012KT 27/18 A2997 RMK A01 T02660183  RH  060%=      5-min Rain = 0
KSW1 121038Z 18010KT 27/18 A2997 RMK A01 T02670184  RH  060%=      5-min Rain = 0
KSW1 121039Z 17013KT 27/18 A2997 RMK A01 T02670184  RH  060%=      5-min Rain = 0
KSW1 121040Z 17011KT 27/18 A2997 RMK A01 T02670184  RH  061%=      5-min Rain = 0
KSW1 121041Z 17012KT 27/18 A2997 RMK A01 T02660184  RH  061%=      5-min Rain = 0
KSW1 121042Z 18012KT 27/18 A2997 RMK A01 T02670184  RH  061%=      5-min Rain = 0
KSW1 121043Z 17013KT 27/19 A2997 RMK A01 T02660185  RH  061%=      5-min Rain = 0
KSW1 121044Z 18012KT 27/19 A2997 RMK A01 T02660185  RH  061%=      5-min Rain = 0
KSW1 121045Z 18011KT 27/19 A2997 RMK A01 T02660185  RH  061%=      5-min Rain = 0
KSW1 121046Z 18014KT 27/19 A2997 RMK A01 T02660186  RH  061%=      5-min Rain = 0
KSW1 121047Z 18012KT 27/19 A2997 RMK A01 T02670186  RH  061%=      5-min Rain = 0
KSW1 121048Z 18011KT 27/19 A2997 RMK A01 T02670186  RH  061%=      5-min Rain = 0
KSW1 121049Z 18012KT 27/19 A2997 RMK A01 T02660186  RH  061%=      5-min Rain = 0
KSW1 121050Z 18013KT 27/19 A2997 RMK A01 T02660186  RH  061%=      5-min Rain = 0
KSW1 121051Z 17013KT 27/19 A2997 RMK A01 T02650185  RH  061%=      5-min Rain = 0
KSW1 121052Z 18012KT 27/19 A2997 RMK A01 T02660186  RH  061%=      5-min Rain = 0
KSW1 121053Z 18012KT 27/19 A2997 RMK A01 T02660186  RH  061%=      5-min Rain = 0
KSW1 121054Z 18012KT 27/19 A2997 RMK A01 T02660186  RH  062%=      5-min Rain = 0
KSW1 121055Z 18010KT 27/19 A2997 RMK A01 T02650186  RH  062%=      5-min Rain = 0
KSW1 121056Z 18012KT 26/19 A2997 RMK A01 T02640186  RH  062%=      5-min Rain = 0
KSW1 121057Z 18013KT 26/19 A2997 RMK A01 T02640186  RH  062%=      5-min Rain = 0
KSW1 121058Z 18013KT 26/19 A2998 RMK A01 T02640186  RH  062%=      5-min Rain = 0
KSW1 121059Z 18013KT 26/19 A2998 RMK A01 T02640187  RH  063%=      5-min Rain = 0
KSW1 121100Z 18013KT 26/19 A2998 RMK A01 T02640187  RH  062%=      5-min Rain = 0
KSW1 121101Z 18013KT 26/19 A2998 RMK A01 T02640187  RH  063%=      5-min Rain = 0
KSW1 121102Z 18012KT 26/19 A2998 RMK A01 T02640187  RH  063%=      5-min Rain = 0
KSW1 121103Z 18013KT 26/19 A2998 RMK A01 T02640187  RH  063%=      5-min Rain = 0
KSW1 121104Z 18012KT 26/19 A2998 RMK A01 T02630187  RH  063%=      5-min Rain = 0
KSW1 121105Z 18012KT 26/19 A2998 RMK A01 T02630187  RH  063%=      5-min Rain = 0
KSW1 121106Z 18011KT 26/19 A2998 RMK A01 T02620187  RH  063%=      5-min Rain = 0
KSW1 121107Z 18011G16KT 26/19 A2998 RMK A01 T02620187  RH  063%=      5-min Rain = 0
KSW1 121108Z 18011KT 26/19 A2998 RMK A01 T02620187  RH  063%=      5-min Rain = 0
KSW1 121109Z 17012KT 26/19 A2998 RMK A01 T02620187  RH  063%=      5-min Rain = 0
KSW1 121110Z 18014KT 26/19 A2998 RMK A01 T02610187  RH  064%=      5-min Rain = 0
KSW1 121111Z 17012KT 26/19 A2998 RMK A01 T02610187  RH  063%=      5-min Rain = 0
KSW1 121112Z 17012KT 26/19 A2998 RMK A01 T02620187  RH  064%=      5-min Rain = 0
KSW1 121113Z 17013KT 26/19 A2998 RMK A01 T02610187  RH  064%=      5-min Rain = 0
KSW1 121114Z 17014KT 26/19 A2998 RMK A01 T02620189  RH  064%=      5-min Rain = 0
KSW1 121115Z 17013KT 26/19 A2998 RMK A01 T02620189  RH  064%=      5-min Rain = 0
KSW1 121116Z 17011KT 26/19 A2998 RMK A01 T02620189  RH  064%=      5-min Rain = 0
KSW1 121117Z 17012KT 26/19 A2998 RMK A01 T02610189  RH  064%=      5-min Rain = 0
KSW1 121118Z 17011KT 26/19 A2998 RMK A01 T02600189  RH  065%=      5-min Rain = 0
KSW1 121119Z 17012KT 26/19 A2998 RMK A01 T02600189  RH  065%=      5-min Rain = 0
KSW1 121120Z 18011KT 26/19 A2998 RMK A01 T02600190  RH  065%=      5-min Rain = 0
KSW1 121121Z 18012KT 26/19 A2998 RMK A01 T02600190  RH  065%=      5-min Rain = 0
KSW1 121122Z 18010KT 26/19 A2998 RMK A01 T02600190  RH  065%=      5-min Rain = 0
KSW1 121123Z 17012KT 26/19 A2998 RMK A01 T02590190  RH  065%=      5-min Rain = 0
KSW1 121124Z 18012KT 26/19 A2998 RMK A01 T02590190  RH  066%=      5-min Rain = 0
KSW1 121125Z 18011KT 26/19 A2998 RMK A01 T02590190  RH  066%=      5-min Rain = 0
KSW1 121126Z 17012KT 26/19 A2998 RMK A01 T02580190  RH  066%=      5-min Rain = 0
KSW1 121127Z 18011KT 26/19 A2998 RMK A01 T02580190  RH  066%=      5-min Rain = 0
KSW1 121128Z 18012KT 26/19 A2998 RMK A01 T02580190  RH  066%=      5-min Rain = 0
KSW1 121129Z 18010KT 26/19 A2998 RMK A01 T02570190  RH  066%=      5-min Rain = 0
KSW1 121130Z 18010KT 26/19 A2998 RMK A01 T02570190  RH  066%=      5-min Rain = 0
KSW1 121131Z 18012KT 26/19 A2998 RMK A01 T02570191  RH  067%=      5-min Rain = 0
KSW1 121132Z 18011KT 26/19 A2998 RMK A01 T02570191  RH  067%=      5-min Rain = 0
KSW1 121133Z 18012KT 26/19 A2998 RMK A01 T02570191  RH  067%=      5-min Rain = 0
KSW1 121134Z 18012KT 26/19 A2998 RMK A01 T02570191  RH  067%=      5-min Rain = 0
KSW1 121135Z 18012KT 26/19 A2998 RMK A01 T02570191  RH  067%=      5-min Rain = 0
KSW1 121136Z 18011KT 26/19 A2998 RMK A01 T02560191  RH  067%=      5-min Rain = 0
KSW1 121137Z 18010KT 26/19 A2998 RMK A01 T02560191  RH  067%=      5-min Rain = 0
KSW1 121138Z 18010KT 26/19 A2998 RMK A01 T02550191  RH  067%=      5-min Rain = 0
KSW1 121139Z 18010KT 26/19 A2998 RMK A01 T02550191  RH  067%=      5-min Rain = 0
KSW1 121140Z 18010KT 25/19 A2998 RMK A01 T02540191  RH  068%=      5-min Rain = 0
KSW1 121141Z 18010KT 25/19 A2998 RMK A01 T02540191  RH  068%=      5-min Rain = 0
KSW1 121142Z 18010KT 25/19 A2998 RMK A01 T02540191  RH  068%=      5-min Rain = 0
KSW1 121143Z 18011KT 25/19 A2998 RMK A01 T02540191  RH  068%=      5-min Rain = 0
KSW1 121144Z 18012KT 25/19 A2998 RMK A01 T02540191  RH  068%=      5-min Rain = 0
KSW1 121145Z 18012KT 26/19 A2998 RMK A01 T02550192  RH  068%=      5-min Rain = 0
KSW1 121146Z 18010KT 26/19 A2998 RMK A01 T02550192  RH  068%=      5-min Rain = 0
KSW1 121147Z 18009KT 26/19 A2998 RMK A01 T02550192  RH  068%=      5-min Rain = 0
KSW1 121148Z 18010KT 25/19 A2998 RMK A01 T02540192  RH  068%=      5-min Rain = 0
KSW1 121149Z 18011KT 25/19 A2998 RMK A01 T02540192  RH  069%=      5-min Rain = 0
KSW1 121150Z 18010KT 25/19 A2998 RMK A01 T02540192  RH  068%=      5-min Rain = 0
KSW1 121151Z 19010KT 25/19 A2998 RMK A01 T02540192  RH  068%=      5-min Rain = 0
KSW1 121152Z 18010KT 25/19 A2998 RMK A01 T02530192  RH  069%=      5-min Rain = 0
KSW1 121153Z 19011KT 25/19 A2998 RMK A01 T02530192  RH  069%=      5-min Rain = 0
KSW1 121154Z 19011KT 25/19 A2998 RMK A01 T02530192  RH  069%=      5-min Rain = 0
KSW1 121155Z 19011KT 25/19 A2998 RMK A01 T02530192  RH  069%=      5-min Rain = 0
KSW1 121156Z 18011KT 25/19 A2998 RMK A01 T02540193  RH  069%=      5-min Rain = 0
KSW1 121157Z 18010KT 25/19 A2998 RMK A01 T02540193  RH  069%=      5-min Rain = 0
KSW1 121158Z 19010KT 25/19 A2998 RMK A01 T02540193  RH  069%=      5-min Rain = 0
KSW1 121159Z 19012KT 25/19 A2998 RMK A01 T02530193  RH  069%=      5-min Rain = 0
KSW1 121200Z 18009KT 25/19 A2998 RMK A01 T02540194  RH  069%=      5-min Rain = 0
KSW1 121201Z 19010KT 25/19 A2998 RMK A01 T02540193  RH  069%=      5-min Rain = 0
KSW1 121202Z 19011KT 25/19 A2998 RMK A01 T02530194  RH  069%=      5-min Rain = 0
KSW1 121203Z 19011KT 25/19 A2998 RMK A01 T02530194  RH  070%=      5-min Rain = 0
KSW1 121204Z 19011KT 25/19 A2998 RMK A01 T02540194  RH  070%=      5-min Rain = 0
KSW1 121205Z 19010KT 25/19 A2998 RMK A01 T02530194  RH  070%=      5-min Rain = 0
KSW1 121206Z 19009KT 25/19 A2998 RMK A01 T02530194  RH  070%=      5-min Rain = 0
KSW1 121207Z 19011KT 25/20 A2999 RMK A01 T02530195  RH  070%=      5-min Rain = 0
KSW1 121208Z 19010KT 25/19 A2999 RMK A01 T02530194  RH  070%=      5-min Rain = 0
KSW1 121209Z 19011KT 25/19 A2999 RMK A01 T02530194  RH  070%=      5-min Rain = 0
KSW1 121210Z 19011KT 25/19 A2999 RMK A01 T02530194  RH  070%=      5-min Rain = 0
KSW1 121211Z 19010KT 25/19 A2999 RMK A01 T02530194  RH  070%=      5-min Rain = 0
KSW1 121212Z 19010KT 25/20 A2999 RMK A01 T02530195  RH  070%=      5-min Rain = 0
KSW1 121213Z 19010KT 25/20 A2999 RMK A01 T02530195  RH  070%=      5-min Rain = 0
KSW1 121214Z 19010KT 25/19 A2999 RMK A01 T02530194  RH  070%=      5-min Rain = 0
KSW1 121215Z 19010KT 25/19 A2999 RMK A01 T02530194  RH  070%=      5-min Rain = 0
KSW1 121216Z 19009KT 25/19 A2999 RMK A01 T02520194  RH  070%=      5-min Rain = 0
KSW1 121217Z 19009KT 25/19 A2999 RMK A01 T02520194  RH  070%=      5-min Rain = 0
KSW1 121218Z 19011KT 25/19 A2999 RMK A01 T02520194  RH  070%=      5-min Rain = 0
KSW1 121219Z 19011KT 25/19 A2999 RMK A01 T02510194  RH  070%=      5-min Rain = 0
KSW1 121220Z 19011KT 25/19 A2999 RMK A01 T02510194  RH  070%=      5-min Rain = 0
KSW1 121221Z 19011KT 25/19 A2999 RMK A01 T02520194  RH  070%=      5-min Rain = 0
KSW1 121222Z 19010KT 25/19 A2999 RMK A01 T02510194  RH  070%=      5-min Rain = 0
KSW1 121223Z 19011KT 25/19 A2999 RMK A01 T02520194  RH  070%=      5-min Rain = 0
KSW1 121224Z 19011KT 25/19 A2999 RMK A01 T02510194  RH  070%=      5-min Rain = 0
KSW1 121225Z 19011KT 25/19 A2999 RMK A01 T02510194  RH  070%=      5-min Rain = 0
KSW1 121226Z 19010KT 25/19 A2999 RMK A01 T02510194  RH  070%=      5-min Rain = 0
KSW1 121227Z 19011KT 25/19 A2999 RMK A01 T02510194  RH  070%=      5-min Rain = 0
KSW1 121228Z 19011KT 25/19 A2999 RMK A01 T02510194  RH  070%=      5-min Rain = 0
KSW1 121229Z 19012KT 25/19 A2999 RMK A01 T02510194  RH  071%=      5-min Rain = 0
KSW1 121230Z 19009KT 25/19 A2999 RMK A01 T02510193  RH  070%=      5-min Rain = 0
KSW1 121231Z 19011KT 25/19 A2999 RMK A01 T02510194  RH  071%=      5-min Rain = 0
KSW1 121232Z 19011KT 25/19 A2999 RMK A01 T02510194  RH  071%=      5-min Rain = 0
KSW1 121233Z 19011KT 25/19 A2999 RMK A01 T02510194  RH  071%=      5-min Rain = 0
KSW1 121234Z 19010KT 25/19 A2999 RMK A01 T02510194  RH  071%=      5-min Rain = 0
KSW1 121235Z 19009KT 25/19 A2999 RMK A01 T02510194  RH  071%=      5-min Rain = 0
KSW1 121236Z 19012KT 25/19 A2999 RMK A01 T02510194  RH  071%=      5-min Rain = 0
KSW1 121237Z 18012KT 25/19 A2999 RMK A01 T02510194  RH  071%=      5-min Rain = 0
KSW1 121238Z 19011KT 25/19 A2999 RMK A01 T02510194  RH  071%=      5-min Rain = 0
KSW1 121239Z 19012KT 25/19 A2999 RMK A01 T02510194  RH  071%=      5-min Rain = 0
KSW1 121240Z 18011KT 25/19 A2999 RMK A01 T02510194  RH  071%=      5-min Rain = 0
KSW1 121241Z 19010KT 25/19 A2999 RMK A01 T02510194  RH  071%=      5-min Rain = 0
KSW1 121242Z 19010KT 25/19 A2999 RMK A01 T02520194  RH  071%=      5-min Rain = 0
KSW1 121243Z 19011KT 25/19 A2999 RMK A01 T02510194  RH  071%=      5-min Rain = 0
KSW1 121244Z 18010KT 25/20 A2999 RMK A01 T02520195  RH  071%=      5-min Rain = 0
KSW1 121245Z 18010KT 25/20 A2999 RMK A01 T02520195  RH  071%=      5-min Rain = 0
KSW1 121246Z 19010KT 25/20 A2999 RMK A01 T02520195  RH  071%=      5-min Rain = 0
KSW1 121247Z 18010KT 25/20 A2999 RMK A01 T02520195  RH  071%=      5-min Rain = 0
KSW1 121248Z 18011KT 25/20 A2999 RMK A01 T02530196  RH  071%=      5-min Rain = 0
KSW1 121249Z 19011KT 25/20 A2999 RMK A01 T02530196  RH  070%=      5-min Rain = 0
KSW1 121250Z 18010KT 25/20 A2999 RMK A01 T02540196  RH  070%=      5-min Rain = 0
KSW1 121251Z 19010KT 25/20 A2999 RMK A01 T02540196  RH  070%=      5-min Rain = 0
KSW1 121252Z 19009KT 25/20 A2999 RMK A01 T02540196  RH  070%=      5-min Rain = 0
KSW1 121253Z 19010KT 26/20 A2999 RMK A01 T02550196  RH  070%=      5-min Rain = 0
KSW1 121254Z 19009KT 26/20 A2999 RMK A01 T02550197  RH  070%=      5-min Rain = 0
KSW1 121255Z 19009KT 26/20 A2999 RMK A01 T02560197  RH  070%=      5-min Rain = 0
KSW1 121256Z 19012KT 26/20 A2999 RMK A01 T02560197  RH  070%=      5-min Rain = 0
KSW1 121257Z 19012KT 26/20 A2999 RMK A01 T02560197  RH  070%=      5-min Rain = 0
KSW1 121258Z 19012KT 26/20 A2999 RMK A01 T02570198  RH  070%=      5-min Rain = 0
KSW1 121259Z 19010KT 26/20 A2999 RMK A01 T02570198  RH  070%=      5-min Rain = 0
KSW1 121300Z 19010KT 26/20 A2999 RMK A01 T02580198  RH  069%=      5-min Rain = 0
KSW1 121301Z 19010KT 26/20 A2999 RMK A01 T02580198  RH  069%=      5-min Rain = 0
KSW1 121302Z 19011KT 26/20 A2999 RMK A01 T02590198  RH  069%=      5-min Rain = 0
KSW1 121303Z 19009KT 26/20 A2999 RMK A01 T02590199  RH  069%=      5-min Rain = 0
KSW1 121304Z 18010KT 26/20 A2999 RMK A01 T02600199  RH  069%=      5-min Rain = 0
KSW1 121305Z 19011KT 26/20 A2999 RMK A01 T02600199  RH  069%=      5-min Rain = 0
KSW1 121306Z 18010KT 26/20 A2999 RMK A01 T02600199  RH  069%=      5-min Rain = 0
KSW1 121307Z 19012KT 26/20 A2999 RMK A01 T02610199  RH  069%=      5-min Rain = 0
KSW1 121308Z 19010KT 26/20 A2999 RMK A01 T02610200  RH  069%=      5-min Rain = 0
KSW1 121309Z 19012KT 26/20 A2999 RMK A01 T02610200  RH  069%=      5-min Rain = 0
KSW1 121310Z 19011KT 26/20 A2999 RMK A01 T02620200  RH  069%=      5-min Rain = 0
KSW1 121311Z 19013KT 26/20 A2999 RMK A01 T02620200  RH  069%=      5-min Rain = 0
KSW1 121312Z 19013KT 26/20 A2999 RMK A01 T02620200  RH  069%=      5-min Rain = 0
KSW1 121313Z 18011KT 26/20 A2999 RMK A01 T02620200  RH  069%=      5-min Rain = 0
KSW1 121314Z 18013KT 26/20 A2999 RMK A01 T02620200  RH  069%=      5-min Rain = 0
KSW1 121315Z 18010KT 26/20 A2999 RMK A01 T02630200  RH  068%=      5-min Rain = 0
KSW1 121316Z 18011KT 26/20 A2999 RMK A01 T02640201  RH  068%=      5-min Rain = 0
KSW1 121317Z 18013KT 27/20 A2999 RMK A01 T02650201  RH  068%=      5-min Rain = 0
KSW1 121318Z 18011KT 27/20 A2999 RMK A01 T02650201  RH  068%=      5-min Rain = 0
KSW1 121319Z 18015KT 27/20 A2999 RMK A01 T02650201  RH  068%=      5-min Rain = 0
KSW1 121320Z 18013KT 27/20 A2999 RMK A01 T02650201  RH  068%=      5-min Rain = 0
KSW1 121321Z 19011KT 27/20 A2999 RMK A01 T02650201  RH  068%=      5-min Rain = 0
KSW1 121322Z 18012KT 27/20 A2999 RMK A01 T02650201  RH  068%=      5-min Rain = 0
KSW1 121323Z 19010KT 27/20 A2999 RMK A01 T02660201  RH  068%=      5-min Rain = 0
KSW1 121324Z 19009KT 27/20 A2999 RMK A01 T02670202  RH  067%=      5-min Rain = 0
KSW1 121325Z 19011KT 27/20 A2999 RMK A01 T02680202  RH  067%=      5-min Rain = 0
KSW1 121326Z 18010KT 27/20 A2999 RMK A01 T02680202  RH  067%=      5-min Rain = 0
KSW1 121327Z 18008KT 27/20 A30 RMK A01 T02680202  RH  067%=      5-min Rain = 0
KSW1 121328Z 17009KT 27/20 A30 RMK A01 T02690202  RH  067%=      5-min Rain = 0
KSW1 121329Z 18012KT 27/20 A30 RMK A01 T02690201  RH  066%=      5-min Rain = 0
KSW1 121330Z 18010KT 27/20 A30 RMK A01 T02680201  RH  067%=      5-min Rain = 0
KSW1 121331Z 18009KT 27/20 A30 RMK A01 T02680202  RH  067%=      5-min Rain = 0
KSW1 121332Z 18010KT 27/20 A30 RMK A01 T02690201  RH  066%=      5-min Rain = 0
KSW1 121333Z 19011KT 27/20 A30 RMK A01 T02690201  RH  066%=      5-min Rain = 0
KSW1 121334Z 18010KT 27/20 A30 RMK A01 T02690202  RH  066%=      5-min Rain = 0
KSW1 121335Z 18011KT 27/20 A30 RMK A01 T02690202  RH  067%=      5-min Rain = 0
KSW1 121336Z 18011KT 27/20 A30 RMK A01 T02690202  RH  067%=      5-min Rain = 0
KSW1 121337Z 18012KT 27/20 A30 RMK A01 T02700202  RH  066%=      5-min Rain = 0
KSW1 121338Z 18012KT 27/20 A30 RMK A01 T02700202  RH  066%=      5-min Rain = 0
KSW1 121339Z 18011KT 27/20 A30 RMK A01 T02710202  RH  066%=      5-min Rain = 0
KSW1 121340Z 18013KT 27/20 A30 RMK A01 T02710202  RH  066%=      5-min Rain = 0
KSW1 121341Z 19011KT 27/20 A30 RMK A01 T02710202  RH  066%=      5-min Rain = 0
KSW1 121342Z 19013KT 27/20 A30 RMK A01 T02710202  RH  066%=      5-min Rain = 0
KSW1 121343Z 19012KT 27/20 A30 RMK A01 T02710202  RH  066%=      5-min Rain = 0
KSW1 121344Z 19011KT 27/20 A30 RMK A01 T02710202  RH  066%=      5-min Rain = 0
KSW1 121345Z 18013KT 27/20 A30 RMK A01 T02720203  RH  066%=      5-min Rain = 0
KSW1 121346Z 18012KT 27/20 A30 RMK A01 T02720203  RH  066%=      5-min Rain = 0
KSW1 121347Z 19014KT 27/20 A30 RMK A01 T02720203  RH  066%=      5-min Rain = 0
KSW1 121348Z 18012KT 27/20 A30 RMK A01 T02730203  RH  066%=      5-min Rain = 0
KSW1 121349Z 18012KT 27/20 A30 RMK A01 T02730203  RH  065%=      5-min Rain = 0
KSW1 121350Z 18015KT 27/20 A30 RMK A01 T02730203  RH  065%=      5-min Rain = 0
KSW1 121351Z 19016KT 27/20 A30 RMK A01 T02740203  RH  065%=      5-min Rain = 0
KSW1 121352Z 19011KT 27/20 A30 RMK A01 T02730203  RH  066%=      5-min Rain = 0
KSW1 121353Z 19014KT 27/20 A30 RMK A01 T02730203  RH  066%=      5-min Rain = 0
KSW1 121354Z 19013KT 27/20 A30 RMK A01 T02730203  RH  065%=      5-min Rain = 0
KSW1 121355Z 19011KT 27/20 A30 RMK A01 T02730203  RH  066%=      5-min Rain = 0
KSW1 121356Z 18010KT 27/20 A30 RMK A01 T02730203  RH  065%=      5-min Rain = 0
KSW1 121357Z 19011KT 27/20 A30 RMK A01 T02740203  RH  065%=      5-min Rain = 0
KSW1 121358Z 18009KT 28/20 A30 RMK A01 T02760204  RH  065%=      5-min Rain = 0
KSW1 121359Z 18010KT 28/20 A30 RMK A01 T02780204  RH  064%=      5-min Rain = 0
KSW1 121400Z 17012KT 28/20 A30 RMK A01 T02790204  RH  064%=      5-min Rain = 0
KSW1 121401Z 18012KT 28/21 A30 RMK A01 T02780205  RH  064%=      5-min Rain = 0
KSW1 121402Z 18013KT 28/20 A30 RMK A01 T02780204  RH  064%=      5-min Rain = 0
KSW1 121403Z 18013KT 28/20 A30 RMK A01 T02770204  RH  064%=      5-min Rain = 0
KSW1 121404Z 18013KT 28/20 A30 RMK A01 T02770204  RH  065%=      5-min Rain = 0
KSW1 121405Z 19015KT 28/20 A30 RMK A01 T02780204  RH  064%=      5-min Rain = 0
KSW1 121406Z 18015KT 28/20 A30 RMK A01 T02780203  RH  064%=      5-min Rain = 0
KSW1 121407Z 18014KT 28/20 A30 RMK A01 T02780204  RH  064%=      5-min Rain = 0
KSW1 121408Z 19012KT 28/20 A30 RMK A01 T02770204  RH  064%=      5-min Rain = 0
KSW1 121409Z 18014KT 28/20 A30 RMK A01 T02770204  RH  064%=      5-min Rain = 0
KSW1 121410Z 18015KT 28/20 A30 RMK A01 T02780204  RH  064%=      5-min Rain = 0
KSW1 121411Z 18014KT 28/20 A30 RMK A01 T02780204  RH  064%=      5-min Rain = 0
KSW1 121412Z 19014KT 28/20 A30 RMK A01 T02780204  RH  064%=      5-min Rain = 0
KSW1 121413Z 18014KT 28/21 A30 RMK A01 T02790205  RH  064%=      5-min Rain = 0
KSW1 121414Z 17013KT 28/21 A30 RMK A01 T02800205  RH  064%=      5-min Rain = 0
KSW1 121415Z 19011KT 28/21 A30 RMK A01 T02810205  RH  063%=      5-min Rain = 0
KSW1 121416Z 19012KT 28/21 A30 RMK A01 T02820205  RH  063%=      5-min Rain = 0
KSW1 121417Z 17013KT 28/21 A30 RMK A01 T02830206  RH  063%=      5-min Rain = 0
KSW1 121418Z 18013KT 28/21 A30 RMK A01 T02830206  RH  063%=      5-min Rain = 0
KSW1 121419Z 19014KT 28/21 A30 RMK A01 T02830205  RH  063%=      5-min Rain = 0
KSW1 121420Z 19014KT 28/21 A30 RMK A01 T02820206  RH  063%=      5-min Rain = 0
KSW1 121421Z 18014KT 28/21 A30 RMK A01 T02820205  RH  063%=      5-min Rain = 0
KSW1 121422Z 18012KT 28/21 A30 RMK A01 T02810206  RH  064%=      5-min Rain = 0
KSW1 121423Z 19013G18KT 28/21 A30 RMK A01 T02820206  RH  064%=      5-min Rain = 0
KSW1 121424Z 18013KT 28/21 A30 RMK A01 T02830206  RH  063%=      5-min Rain = 0
KSW1 121425Z 19014KT 28/21 A30 RMK A01 T02840206  RH  063%=      5-min Rain = 0
KSW1 121426Z 19013G18KT 28/21 A30 RMK A01 T02840206  RH  063%=      5-min Rain = 0
KSW1 121427Z 19016KT 29/21 A30 RMK A01 T02850205  RH  062%=      5-min Rain = 0
KSW1 121428Z 19015KT 29/21 A30 RMK A01 T02850205  RH  062%=      5-min Rain = 0
KSW1 121429Z 19015KT 29/21 A30 RMK A01 T02850206  RH  062%=      5-min Rain = 0
KSW1 121430Z 19014G19KT 29/21 A30 RMK A01 T02850206  RH  062%=      5-min Rain = 0
KSW1 121431Z 19014KT 29/21 A30 RMK A01 T02860205  RH  062%=      5-min Rain = 0
KSW1 121432Z 19014KT 29/21 A30 RMK A01 T02860206  RH  062%=      5-min Rain = 0
KSW1 121433Z 19015KT 29/21 A30 RMK A01 T02860206  RH  062%=      5-min Rain = 0
KSW1 121434Z 19016KT 29/21 A30 RMK A01 T02860205  RH  062%=      5-min Rain = 0
KSW1 121435Z 19016KT 29/21 A30 RMK A01 T02870205  RH  061%=      5-min Rain = 0
KSW1 121436Z 19014KT 29/21 A30 RMK A01 T02870206  RH  061%=      5-min Rain = 0
KSW1 121437Z 19015KT 29/21 A30 RMK A01 T02880206  RH  061%=      5-min Rain = 0
KSW1 121438Z 18016KT 29/21 A30 RMK A01 T02880206  RH  061%=      5-min Rain = 0
KSW1 121439Z 18011KT 29/21 A30 RMK A01 T02880206  RH  061%=      5-min Rain = 0
KSW1 121440Z 18014KT 29/21 A30 RMK A01 T02900206  RH  061%=      5-min Rain = 0
KSW1 121441Z 18015KT 29/21 A30 RMK A01 T02910206  RH  060%=      5-min Rain = 0
KSW1 121442Z 18013KT 29/21 A30 RMK A01 T02900207  RH  061%=      5-min Rain = 0
KSW1 121443Z 19012KT 29/21 A30 RMK A01 T02910207  RH  061%=      5-min Rain = 0
KSW1 121444Z 20014KT 29/21 A30 RMK A01 T02920207  RH  060%=      5-min Rain = 0
KSW1 121445Z 20013KT 29/21 A30 RMK A01 T02930206  RH  060%=      5-min Rain = 0
KSW1 121446Z 19013KT 29/21 A30 RMK A01 T02920207  RH  060%=      5-min Rain = 0
KSW1 121447Z 18014KT 29/21 A30 RMK A01 T02920208  RH  060%=      5-min Rain = 0
KSW1 121448Z 19012KT 29/21 A30 RMK A01 T02930207  RH  060%=      5-min Rain = 0
KSW1 121449Z 19013KT 29/21 A30 RMK A01 T02940208  RH  060%=      5-min Rain = 0
KSW1 121450Z 17012KT 29/21 A30 RMK A01 T02940208  RH  060%=      5-min Rain = 0
KSW1 121451Z 18015KT 30/21 A30 RMK A01 T02950206  RH  059%=      5-min Rain = 0
KSW1 121452Z 20013KT 30/21 A30 RMK A01 T02960206  RH  058%=      5-min Rain = 0
KSW1 121453Z 19014KT 30/21 A30 RMK A01 T02970206  RH  058%=      5-min Rain = 0
KSW1 121454Z 19013KT 30/21 A30 RMK A01 T02970206  RH  058%=      5-min Rain = 0
KSW1 121455Z 20013KT 30/21 A30 RMK A01 T02970206  RH  058%=      5-min Rain = 0
KSW1 121456Z 19010KT 30/21 A30 RMK A01 T02970206  RH  058%=      5-min Rain = 0
KSW1 121457Z 18013KT 30/21 A30 RMK A01 T02990207  RH  058%=      5-min Rain = 0
KSW1 121458Z 17012KT 30/21 A30 RMK A01 T02990206  RH  058%=      5-min Rain = 0
KSW1 121459Z 18013KT 30/21 A30 RMK A01 T03000206  RH  057%=      5-min Rain = 0
KSW1 121500Z 19014KT 30/21 A30 RMK A01 T02990207  RH  058%=      5-min Rain = 0
KSW1 121501Z 19014KT 30/21 A30 RMK A01 T02990206  RH  058%=      5-min Rain = 0
KSW1 121502Z 19013KT 30/21 A30 RMK A01 T02980205  RH  057%=      5-min Rain = 0
KSW1 121503Z 20016KT 30/21 A30 RMK A01 T03000205  RH  057%=      5-min Rain = 0
KSW1 121504Z 20016KT 30/20 A30 RMK A01 T03000204  RH  057%=      5-min Rain = 0
KSW1 121505Z 20013KT 30/21 A30 RMK A01 T02980205  RH  057%=      5-min Rain = 0
KSW1 121506Z 20012G17KT 30/21 A30 RMK A01 T02990205  RH  057%=      5-min Rain = 0
KSW1 121507Z 18015G20KT 30/21 A30 RMK A01 T03010205  RH  056%=      5-min Rain = 0
KSW1 121508Z 18015KT 30/21 A30 RMK A01 T03020205  RH  056%=      5-min Rain = 0
KSW1 121509Z 19012KT 30/21 A30 RMK A01 T03020206  RH  056%=      5-min Rain = 0
KSW1 121510Z 19012KT 30/21 A30 RMK A01 T03030206  RH  056%=      5-min Rain = 0
KSW1 121511Z 20015KT 31/21 A30 RMK A01 T03050205  RH  055%=      5-min Rain = 0
KSW1 121512Z 19012KT 31/21 A30 RMK A01 T03050206  RH  056%=      5-min Rain = 0
KSW1 121513Z 20012KT 31/21 A30 RMK A01 T03060207  RH  055%=      5-min Rain = 0
KSW1 121514Z 18014KT 31/21 A30 RMK A01 T03070205  RH  055%=      5-min Rain = 0
KSW1 121515Z 19016KT 31/20 A2999 RMK A01 T03060203  RH  054%=      5-min Rain = 0
KSW1 121516Z 20016KT 31/20 A2999 RMK A01 T03050204  RH  055%=      5-min Rain = 0
KSW1 121517Z 19015KT 31/20 A30 RMK A01 T03050204  RH  055%=      5-min Rain = 0
KSW1 121518Z 19015KT 31/20 A30 RMK A01 T03050204  RH  055%=      5-min Rain = 0
KSW1 121519Z 19012KT 30/21 A30 RMK A01 T03040205  RH  056%=      5-min Rain = 0
KSW1 121520Z 20014KT 30/21 A30 RMK A01 T03040206  RH  056%=      5-min Rain = 0
KSW1 121521Z 18016KT 31/20 A30 RMK A01 T03070204  RH  054%=      5-min Rain = 0
KSW1 121522Z 19015KT 31/20 A30 RMK A01 T03080203  RH  054%=      5-min Rain = 0
KSW1 121523Z 19013KT 31/20 A30 RMK A01 T03060204  RH  054%=      5-min Rain = 0
KSW1 121524Z 20013G19KT 31/21 A30 RMK A01 T03050205  RH  055%=      5-min Rain = 0
KSW1 121525Z 19017KT 31/20 A2999 RMK A01 T03070202  RH  054%=      5-min Rain = 0
KSW1 121526Z 19015KT 31/20 A30 RMK A01 T03070200  RH  053%=      5-min Rain = 0
KSW1 121527Z 19014KT 31/20 A30 RMK A01 T03070204  RH  054%=      5-min Rain = 0
KSW1 121528Z 18015KT 31/21 A30 RMK A01 T03070206  RH  055%=      5-min Rain = 0
KSW1 121529Z 18017KT 31/20 A2999 RMK A01 T03080203  RH  054%=      5-min Rain = 0
KSW1 121530Z 20012KT 31/20 A30 RMK A01 T03090203  RH  053%=      5-min Rain = 0
KSW1 121531Z 19013G18KT 31/20 A30 RMK A01 T03100204  RH  053%=      5-min Rain = 0
KSW1 121532Z 19015KT 31/20 A30 RMK A01 T03110204  RH  053%=      5-min Rain = 0
KSW1 121533Z 19014KT 31/20 A30 RMK A01 T03120203  RH  052%=      5-min Rain = 0
KSW1 121534Z 18012G18KT 31/21 A30 RMK A01 T03100205  RH  054%=      5-min Rain = 0
KSW1 121535Z 18015KT 31/21 A30 RMK A01 T03090205  RH  054%=      5-min Rain = 0
KSW1 121536Z 19013KT 31/21 A30 RMK A01 T03100205  RH  054%=      5-min Rain = 0
KSW1 121537Z 18014KT 31/20 A30 RMK A01 T03120204  RH  053%=      5-min Rain = 0
KSW1 121538Z 18013KT 31/20 A30 RMK A01 T03120204  RH  053%=      5-min Rain = 0
KSW1 121539Z 18014KT 31/20 A30 RMK A01 T03120204  RH  053%=      5-min Rain = 0
KSW1 121540Z 18014KT 31/20 A30 RMK A01 T03120203  RH  052%=      5-min Rain = 0
KSW1 121541Z 19015KT 31/21 A30 RMK A01 T03120205  RH  053%=      5-min Rain = 0
KSW1 121542Z 18013KT 31/21 A30 RMK A01 T03130206  RH  053%=      5-min Rain = 0
KSW1 121543Z 19012KT 31/21 A30 RMK A01 T03130205  RH  053%=      5-min Rain = 0
KSW1 121544Z 18014G19KT 32/20 A30 RMK A01 T03150204  RH  052%=      5-min Rain = 0
KSW1 121545Z 19015KT 32/20 A30 RMK A01 T03150203  RH  051%=      5-min Rain = 0
KSW1 121546Z 19012KT 32/20 A30 RMK A01 T03150204  RH  052%=      5-min Rain = 0
KSW1 121547Z 20010KT 32/21 A30 RMK A01 T03150205  RH  052%=      5-min Rain = 0
KSW1 121548Z 20012KT 32/21 A30 RMK A01 T03180205  RH  051%=      5-min Rain = 0
KSW1 121549Z 18011KT 32/21 A30 RMK A01 T03190206  RH  051%=      5-min Rain = 0
KSW1 121550Z 17013KT 32/21 A30 RMK A01 T03180205  RH  051%=      5-min Rain = 0
KSW1 121551Z 17013KT 32/20 A30 RMK A01 T03180204  RH  051%=      5-min Rain = 0
KSW1 121552Z 18013G18KT 32/20 A30 RMK A01 T03190203  RH  050%=      5-min Rain = 0
KSW1 121553Z 18013KT 32/20 A30 RMK A01 T03200202  RH  050%=      5-min Rain = 0
KSW1 121554Z 18014KT 32/20 A30 RMK A01 T03200204  RH  050%=      5-min Rain = 0
KSW1 121555Z 18012KT 32/21 A30 RMK A01 T03200205  RH  051%=      5-min Rain = 0
KSW1 121556Z 19012KT 32/20 A30 RMK A01 T03210203  RH  050%=      5-min Rain = 0
KSW1 121557Z 20012KT 32/20 A30 RMK A01 T03230203  RH  049%=      5-min Rain = 0
KSW1 121558Z 18012KT 32/20 A30 RMK A01 T03220203  RH  050%=      5-min Rain = 0
KSW1 121559Z 18011KT 32/20 A30 RMK A01 T03210203  RH  050%=      5-min Rain = 0
KSW1 121600Z 19015KT 32/20 A30 RMK A01 T03230202  RH  049%=      5-min Rain = 0
KSW1 121601Z 19014KT 32/20 A30 RMK A01 T03240202  RH  049%=      5-min Rain = 0
KSW1 121602Z 18012KT 32/20 A30 RMK A01 T03220202  RH  049%=      5-min Rain = 0
KSW1 121603Z 18010KT 32/20 A30 RMK A01 T03200204  RH  050%=      5-min Rain = 0
KSW1 121604Z 18012KT 32/21 A30 RMK A01 T03210205  RH  050%=      5-min Rain = 0
KSW1 121605Z 18013KT 32/20 A30 RMK A01 T03230204  RH  049%=      5-min Rain = 0
KSW1 121606Z 18016KT 32/20 A30 RMK A01 T03200203  RH  050%=      5-min Rain = 0
KSW1 121607Z 18012KT 32/20 A30 RMK A01 T03200203  RH  050%=      5-min Rain = 0
KSW1 121608Z 18010KT 32/20 A30 RMK A01 T03190203  RH  050%=      5-min Rain = 0
KSW1 121609Z 19010KT 32/20 A30 RMK A01 T03210204  RH  050%=      5-min Rain = 0
KSW1 121610Z 18012KT 32/20 A30 RMK A01 T03230203  RH  049%=      5-min Rain = 0
KSW1 121611Z 18012KT 32/20 A30 RMK A01 T03240204  RH  049%=      5-min Rain = 0
KSW1 121612Z 19011KT 32/21 A30 RMK A01 T03240205  RH  049%=      5-min Rain = 0
KSW1 121613Z 19010KT 33/20 A30 RMK A01 T03250204  RH  049%=      5-min Rain = 0
KSW1 121614Z 19010G15KT 33/20 A30 RMK A01 T03250204  RH  049%=      5-min Rain = 0
KSW1 121615Z 20011KT 33/20 A30 RMK A01 T03280203  RH  048%=      5-min Rain = 0
KSW1 121616Z 18012KT 33/20 A30 RMK A01 T03290201  RH  047%=      5-min Rain = 0
KSW1 121617Z 19013KT 33/20 A30 RMK A01 T03290201  RH  047%=      5-min Rain = 0
KSW1 121618Z 17015KT 33/20 A30 RMK A01 T03270199  RH  047%=      5-min Rain = 0
KSW1 121619Z 18016KT 33/20 A30 RMK A01 T03280197  RH  046%=      5-min Rain = 0
KSW1 121620Z 19015KT 33/20 A30 RMK A01 T03280198  RH  046%=      5-min Rain = 0
KSW1 121621Z 21015KT 33/20 A30 RMK A01 T03270198  RH  047%=      5-min Rain = 0
KSW1 121622Z 20013KT 33/20 A30 RMK A01 T03260198  RH  047%=      5-min Rain = 0
KSW1 121623Z 20013KT 33/20 A30 RMK A01 T03290198  RH  046%=      5-min Rain = 0
KSW1 121624Z 21012KT 33/20 A30 RMK A01 T03310198  RH  046%=      5-min Rain = 0
KSW1 121625Z 21011KT 33/20 A30 RMK A01 T03280198  RH  047%=      5-min Rain = 0
KSW1 121626Z 21008KT 33/20 A30 RMK A01 T03260198  RH  047%=      5-min Rain = 0
KSW1 121627Z 20008KT 33/20 A30 RMK A01 T03280199  RH  047%=      5-min Rain = 0
KSW1 121628Z 21009KT 33/20 A30 RMK A01 T03330201  RH  046%=      5-min Rain = 0
KSW1 121629Z 19013KT 34/20 A30 RMK A01 T03360200  RH  045%=      5-min Rain = 0
KSW1 121630Z 18012KT 34/20 A30 RMK A01 T03350198  RH  045%=      5-min Rain = 0
KSW1 121631Z 18014KT 33/20 A30 RMK A01 T03320198  RH  045%=      5-min Rain = 0
KSW1 121632Z 17015KT 33/20 A30 RMK A01 T03330197  RH  045%=      5-min Rain = 0
KSW1 121633Z 18014KT 33/20 A30 RMK A01 T03330197  RH  045%=      5-min Rain = 0
KSW1 121634Z 17012KT 33/20 A30 RMK A01 T03300197  RH  045%=      5-min Rain = 0
KSW1 121635Z 18012G17KT 33/20 A30 RMK A01 T03290197  RH  046%=      5-min Rain = 0
KSW1 121636Z 19014KT 33/20 A30 RMK A01 T03320197  RH  045%=      5-min Rain = 0
KSW1 121637Z 19011KT 33/20 A30 RMK A01 T03340197  RH  044%=      5-min Rain = 0
KSW1 121638Z 19014KT 34/20 A30 RMK A01 T03350196  RH  044%=      5-min Rain = 0
KSW1 121639Z 20014KT 33/20 A30 RMK A01 T03330198  RH  045%=      5-min Rain = 0
KSW1 121640Z 20011KT 33/20 A30 RMK A01 T03320196  RH  045%=      5-min Rain = 0
KSW1 121641Z 19012KT 33/20 A30 RMK A01 T03330195  RH  044%=      5-min Rain = 0
KSW1 121642Z 18011KT 33/19 A30 RMK A01 T03340193  RH  044%=      5-min Rain = 0
KSW1 121643Z 19009G14KT 33/19 A30 RMK A01 T03330193  RH  044%=      5-min Rain = 0
KSW1 121644Z 19011KT 34/20 A30 RMK A01 T03360196  RH  044%=      5-min Rain = 0
KSW1 121645Z 19012KT 34/20 A30 RMK A01 T03390197  RH  043%=      5-min Rain = 0
KSW1 121646Z 18013KT 34/20 A30 RMK A01 T03410197  RH  043%=      5-min Rain = 0
KSW1 121647Z 19013G18KT 34/20 A30 RMK A01 T03380196  RH  043%=      5-min Rain = 0
KSW1 121648Z 18013KT 34/20 A30 RMK A01 T03380200  RH  044%=      5-min Rain = 0
KSW1 121649Z 18011KT 34/20 A30 RMK A01 T03380200  RH  044%=      5-min Rain = 0
KSW1 121650Z 18010KT 33/20 A30 RMK A01 T03340201  RH  046%=      5-min Rain = 0
KSW1 121651Z 20013KT 33/20 A30 RMK A01 T03330197  RH  045%=      5-min Rain = 0
KSW1 121652Z 20012KT 34/19 A30 RMK A01 T03370192  RH  043%=      5-min Rain = 0
KSW1 121653Z 21010KT 34/19 A30 RMK A01 T03360193  RH  043%=      5-min Rain = 0
KSW1 121654Z 20008KT 34/20 A30 RMK A01 T03360195  RH  044%=      5-min Rain = 0
KSW1 121655Z 20010KT 34/20 A30 RMK A01 T03380195  RH  043%=      5-min Rain = 0
KSW1 121656Z 22009G16KT 34/20 A30 RMK A01 T03410197  RH  043%=      5-min Rain = 0
KSW1 121657Z 20010KT 34/20 A30 RMK A01 T03440198  RH  042%=      5-min Rain = 0
KSW1 121658Z 18010G15KT 34/20 A30 RMK A01 T03440200  RH  043%=      5-min Rain = 0
KSW1 121659Z 16015KT 35/20 A2999 RMK A01 T03460199  RH  042%=      5-min Rain = 0
KSW1 121700Z 16015KT 34/20 A30 RMK A01 T03420198  RH  043%=      5-min Rain = 0
KSW1 121701Z 18011KT 34/20 A30 RMK A01 T03410197  RH  043%=      5-min Rain = 0
KSW1 121702Z 19012KT 34/20 A30 RMK A01 T03420197  RH  043%=      5-min Rain = 0
KSW1 121703Z 21012KT 35/20 A30 RMK A01 T03450197  RH  042%=      5-min Rain = 0
KSW1 121704Z 21011KT 34/20 A30 RMK A01 T03440196  RH  042%=      5-min Rain = 0
KSW1 121705Z 19011KT 34/20 A30 RMK A01 T03410196  RH  043%=      5-min Rain = 0
KSW1 121706Z 18013KT 34/20 A30 RMK A01 T03430197  RH  042%=      5-min Rain = 0
KSW1 121707Z 19009KT 34/20 A30 RMK A01 T03420197  RH  042%=      5-min Rain = 0
KSW1 121708Z 18009KT 34/20 A30 RMK A01 T03400197  RH  043%=      5-min Rain = 0
KSW1 121709Z 19014KT 34/20 A30 RMK A01 T03440195  RH  042%=      5-min Rain = 0
KSW1 121710Z 18013KT 35/19 A30 RMK A01 T03470194  RH  041%=      5-min Rain = 0
KSW1 121711Z 19011KT 35/19 A30 RMK A01 T03460191  RH  040%=      5-min Rain = 0
KSW1 121712Z 18012KT 34/19 A30 RMK A01 T03430192  RH  041%=      5-min Rain = 0
KSW1 121713Z 18010KT 34/19 A30 RMK A01 T03420191  RH  041%=      5-min Rain = 0
KSW1 121714Z 18009KT 34/19 A30 RMK A01 T03410192  RH  042%=      5-min Rain = 0
KSW1 121715Z 18007KT 34/19 A30 RMK A01 T03440193  RH  041%=      5-min Rain = 0
KSW1 121716Z 18012KT 34/20 A2999 RMK A01 T03440195  RH  041%=      5-min Rain = 0
KSW1 121717Z 19012KT 34/20 A2999 RMK A01 T03440198  RH  042%=      5-min Rain = 0
KSW1 121718Z 16011KT 34/20 A2999 RMK A01 T03440200  RH  043%=      5-min Rain = 0
KSW1 121719Z 16011KT 34/20 A2999 RMK A01 T03430199  RH  043%=      5-min Rain = 0
KSW1 121720Z 17011KT 34/20 A2999 RMK A01 T03420198  RH  043%=      5-min Rain = 0
KSW1 121721Z 20008KT 34/20 A2999 RMK A01 T03440199  RH  043%=      5-min Rain = 0
KSW1 121722Z 19012KT 35/19 A2999 RMK A01 T03480194  RH  041%=      5-min Rain = 0
KSW1 121723Z 18012KT 35/19 A2999 RMK A01 T03490192  RH  040%=      5-min Rain = 0
KSW1 121724Z 19009KT 35/19 A2999 RMK A01 T03480192  RH  040%=      5-min Rain = 0
KSW1 121725Z 19009KT 35/19 A2999 RMK A01 T03480194  RH  041%=      5-min Rain = 0
KSW1 121726Z 19008KT 35/20 A2999 RMK A01 T03500195  RH  040%=      5-min Rain = 0
KSW1 121727Z 19011KT 35/20 A2999 RMK A01 T03480196  RH  041%=      5-min Rain = 0
KSW1 121728Z 18012KT 35/20 A2999 RMK A01 T03460196  RH  041%=      5-min Rain = 0
KSW1 121729Z 17011G17KT 34/20 A2999 RMK A01 T03440196  RH  042%=      5-min Rain = 0
KSW1 121730Z 18015KT 35/20 A2999 RMK A01 T03460197  RH  042%=      5-min Rain = 0
KSW1 121731Z 18015KT 35/20 A2999 RMK A01 T03470196  RH  041%=      5-min Rain = 0
KSW1 121732Z 19012KT 35/20 A2999 RMK A01 T03470197  RH  042%=      5-min Rain = 0
KSW1 121733Z 19007KT 35/20 A2999 RMK A01 T03450196  RH  042%=      5-min Rain = 0
KSW1 121734Z 18012KT 34/20 A2999 RMK A01 T03440195  RH  042%=      5-min Rain = 0
KSW1 121735Z 18010KT 35/20 A2999 RMK A01 T03450196  RH  042%=      5-min Rain = 0
KSW1 121736Z 18011G16KT 35/20 A2999 RMK A01 T03480195  RH  041%=      5-min Rain = 0
KSW1 121737Z 20010KT 35/19 A2999 RMK A01 T03530191  RH  039%=      5-min Rain = 0
KSW1 121738Z 17010KT 35/19 A2999 RMK A01 T03530191  RH  039%=      5-min Rain = 0
KSW1 121739Z 19007KT 35/19 A2999 RMK A01 T03500192  RH  039%=      5-min Rain = 0
KSW1 121740Z 21009KT 35/19 A2999 RMK A01 T03500191  RH  039%=      5-min Rain = 0
KSW1 121741Z 19011KT 35/19 A2999 RMK A01 T03530193  RH  039%=      5-min Rain = 0
KSW1 121742Z 18011KT 35/20 A2999 RMK A01 T03520197  RH  040%=      5-min Rain = 0
KSW1 121743Z 18012KT 35/20 A2999 RMK A01 T03510198  RH  041%=      5-min Rain = 0
KSW1 121744Z 17014KT 35/20 A2999 RMK A01 T03520196  RH  040%=      5-min Rain = 0
KSW1 121745Z 17013KT 36/20 A2999 RMK A01 T03550196  RH  039%=      5-min Rain = 0
KSW1 121746Z 18014KT 35/20 A2999 RMK A01 T03540195  RH  039%=      5-min Rain = 0
KSW1 121747Z 20009KT 35/19 A2999 RMK A01 T03510194  RH  040%=      5-min Rain = 0
KSW1 121748Z 19011G17KT 35/20 A2999 RMK A01 T03500195  RH  040%=      5-min Rain = 0
KSW1 121749Z 18013KT 35/20 A2998 RMK A01 T03520196  RH  040%=      5-min Rain = 0
KSW1 121750Z 17010KT 35/20 A2999 RMK A01 T03540196  RH  040%=      5-min Rain = 0
KSW1 121751Z 16012KT 36/20 A2999 RMK A01 T03560197  RH  039%=      5-min Rain = 0
KSW1 121752Z 16009KT 36/20 A2998 RMK A01 T03560196  RH  039%=      5-min Rain = 0
KSW1 121753Z 18012KT 36/20 A2998 RMK A01 T03550196  RH  039%=      5-min Rain = 0
KSW1 121754Z 18009KT 36/20 A2998 RMK A01 T03560197  RH  039%=      5-min Rain = 0
KSW1 121755Z 17014KT 36/20 A2998 RMK A01 T03630196  RH  038%=      5-min Rain = 0
KSW1 121756Z 19014KT 36/19 A2998 RMK A01 T03600194  RH  038%=      5-min Rain = 0
KSW1 121757Z 18014KT 36/19 A2998 RMK A01 T03590191  RH  037%=      5-min Rain = 0
KSW1 121758Z 18013KT 36/19 A2998 RMK A01 T03560191  RH  038%=      5-min Rain = 0
KSW1 121759Z 17013KT 36/19 A2998 RMK A01 T03570192  RH  038%=      5-min Rain = 0
KSW1 121800Z 17012KT 36/19 A2998 RMK A01 T03590191  RH  037%=      5-min Rain = 0
KSW1 121801Z 17012KT 36/19 A2998 RMK A01 T03610190  RH  037%=      5-min Rain = 0
KSW1 121802Z 16012KT 36/19 A2998 RMK A01 T03610189  RH  037%=      5-min Rain = 0
KSW1 121803Z 16010KT 36/19 A2998 RMK A01 T03570189  RH  037%=      5-min Rain = 0
KSW1 121804Z 17010G15KT 36/19 A2998 RMK A01 T03560188  RH  037%=      5-min Rain = 0
KSW1 121805Z 18010KT 36/19 A2998 RMK A01 T03560190  RH  038%=      5-min Rain = 0
KSW1 121806Z 17011G17KT 36/19 A2998 RMK A01 T03550191  RH  038%=      5-min Rain = 0
KSW1 121807Z 16014KT 36/20 A2998 RMK A01 T03580195  RH  038%=      5-min Rain = 0
KSW1 121808Z 15012KT 36/19 A2998 RMK A01 T03550193  RH  039%=      5-min Rain = 0
KSW1 121809Z 16009KT 35/19 A2998 RMK A01 T03520193  RH  039%=      5-min Rain = 0
KSW1 121810Z 17015KT 35/19 A2998 RMK A01 T03520193  RH  039%=      5-min Rain = 0
KSW1 121811Z 16013KT 35/19 A2998 RMK A01 T03530191  RH  039%=      5-min Rain = 0
KSW1 121812Z 17014KT 35/19 A2998 RMK A01 T03530192  RH  039%=      5-min Rain = 0
KSW1 121813Z 15008KT 35/19 A2998 RMK A01 T03530191  RH  039%=      5-min Rain = 0
KSW1 121814Z 15014KT 36/19 A2997 RMK A01 T03560192  RH  038%=      5-min Rain = 0
KSW1 121815Z 16011KT 36/20 A2998 RMK A01 T03620195  RH  038%=      5-min Rain = 0
KSW1 121816Z 17013KT 37/19 A2998 RMK A01 T03660194  RH  037%=      5-min Rain = 0
KSW1 121817Z 19010KT 36/19 A2998 RMK A01 T03640193  RH  037%=      5-min Rain = 0
KSW1 121818Z 17010KT 36/19 A2998 RMK A01 T03600192  RH  037%=      5-min Rain = 0
KSW1 121819Z 15008KT 36/19 A2998 RMK A01 T03590192  RH  037%=      5-min Rain = 0
KSW1 121820Z 13011KT 36/19 A2998 RMK A01 T03600192  RH  037%=      5-min Rain = 0
KSW1 121821Z 15012KT 36/19 A2998 RMK A01 T03600191  RH  037%=      5-min Rain = 0
KSW1 121822Z 17010KT 36/19 A2998 RMK A01 T03620192  RH  037%=      5-min Rain = 0
KSW1 121823Z 17014G19KT 36/19 A2998 RMK A01 T03640190  RH  036%=      5-min Rain = 0
KSW1 121824Z 17013KT 36/19 A2998 RMK A01 T03630189  RH  036%=      5-min Rain = 0
KSW1 121825Z 16010KT 36/19 A2998 RMK A01 T03610189  RH  037%=      5-min Rain = 0
KSW1 121826Z 17008KT 36/19 A2997 RMK A01 T03600190  RH  037%=      5-min Rain = 0
KSW1 121827Z 16012G17KT 36/19 A2998 RMK A01 T03610190  RH  037%=      5-min Rain = 0
KSW1 121828Z 14013KT 36/19 A2998 RMK A01 T03620187  RH  036%=      5-min Rain = 0
KSW1 121829Z 14013KT 36/19 A2997 RMK A01 T03610188  RH  036%=      5-min Rain = 0
KSW1 121830Z 15012KT 36/19 A2997 RMK A01 T03610188  RH  036%=      5-min Rain = 0
KSW1 121831Z 15015KT 36/19 A2997 RMK A01 T03610190  RH  037%=      5-min Rain = 0
KSW1 121832Z 15012KT 36/19 A2997 RMK A01 T03610190  RH  037%=      5-min Rain = 0
KSW1 121833Z 16010KT 36/19 A2997 RMK A01 T03620190  RH  037%=      5-min Rain = 0
KSW1 121834Z 16014KT 36/19 A2997 RMK A01 T03610190  RH  037%=      5-min Rain = 0
KSW1 121835Z 14010KT 36/19 A2997 RMK A01 T03600189  RH  037%=      5-min Rain = 0
KSW1 121836Z 17008KT 36/19 A2997 RMK A01 T03580188  RH  037%=      5-min Rain = 0
KSW1 121837Z 15009KT 36/19 A2997 RMK A01 T03580189  RH  037%=      5-min Rain = 0
KSW1 121838Z 17015G20KT 36/19 A2997 RMK A01 T03610188  RH  036%=      5-min Rain = 0
KSW1 121839Z 17015KT 36/19 A2997 RMK A01 T03620188  RH  036%=      5-min Rain = 0
KSW1 121840Z 17012KT 36/19 A2997 RMK A01 T03610188  RH  036%=      5-min Rain = 0
KSW1 121841Z 18010KT 36/19 A2997 RMK A01 T03640187  RH  036%=      5-min Rain = 0
KSW1 121842Z 19008KT 36/19 A2997 RMK A01 T03630186  RH  035%=      5-min Rain = 0
KSW1 121843Z 15006KT 36/19 A2997 RMK A01 T03620187  RH  036%=      5-min Rain = 0
KSW1 121844Z 14010KT 36/19 A2997 RMK A01 T03630186  RH  035%=      5-min Rain = 0
KSW1 121845Z 14010KT 37/19 A2997 RMK A01 T03650185  RH  035%=      5-min Rain = 0
KSW1 121846Z 14012KT 36/19 A2997 RMK A01 T03640186  RH  035%=      5-min Rain = 0
KSW1 121847Z 16013KT 36/19 A2997 RMK A01 T03640187  RH  035%=      5-min Rain = 0
KSW1 121848Z 16012KT 37/19 A2997 RMK A01 T03670188  RH  035%=      5-min Rain = 0
KSW1 121849Z 17010KT 37/19 A2997 RMK A01 T03680186  RH  034%=      5-min Rain = 0
KSW1 121850Z 15011KT 37/19 A2997 RMK A01 T03660187  RH  035%=      5-min Rain = 0
KSW1 121851Z 14012KT 37/19 A2997 RMK A01 T03710185  RH  034%=      5-min Rain = 0
KSW1 121852Z 14013KT 37/18 A2997 RMK A01 T03720181  RH  033%=      5-min Rain = 0
KSW1 121853Z 15012KT 37/18 A2997 RMK A01 T03700182  RH  033%=      5-min Rain = 0
KSW1 121854Z 14013G18KT 37/18 A2997 RMK A01 T03700181  RH  033%=      5-min Rain = 0
KSW1 121855Z 16016KT 37/18 A2997 RMK A01 T03690178  RH  033%=      5-min Rain = 0
KSW1 121856Z 17014KT 37/17 A2997 RMK A01 T03690172  RH  031%=      5-min Rain = 0
KSW1 121857Z 16013KT 37/17 A2997 RMK A01 T03670174  RH  032%=      5-min Rain = 0
KSW1 121858Z 14012KT 37/17 A2997 RMK A01 T03660171  RH  032%=      5-min Rain = 0
KSW1 121859Z 15013KT 37/17 A2996 RMK A01 T03680170  RH  031%=      5-min Rain = 0
KSW1 121900Z 15012G18KT 37/17 A2997 RMK A01 T03720174  RH  031%=      5-min Rain = 0
KSW1 121901Z 15012KT 38/18 A2997 RMK A01 T03750175  RH  031%=      5-min Rain = 0
KSW1 121902Z 15012KT 37/18 A2996 RMK A01 T03730176  RH  031%=      5-min Rain = 0
KSW1 121903Z 16012KT 37/18 A2996 RMK A01 T03740175  RH  031%=      5-min Rain = 0
KSW1 121904Z 16010KT 37/18 A2996 RMK A01 T03730178  RH  032%=      5-min Rain = 0
KSW1 121905Z 15011KT 37/18 A2996 RMK A01 T03720179  RH  032%=      5-min Rain = 0
KSW1 121906Z 17010G15KT 37/18 A2996 RMK A01 T03710180  RH  033%=      5-min Rain = 0
KSW1 121907Z 18016KT 37/18 A2996 RMK A01 T03730177  RH  032%=      5-min Rain = 0
KSW1 121908Z 17016KT 38/17 A2996 RMK A01 T03750173  RH  031%=      5-min Rain = 0
KSW1 121909Z 16012KT 37/17 A2997 RMK A01 T03740172  RH  031%=      5-min Rain = 0
KSW1 121910Z 14010KT 37/17 A2996 RMK A01 T03700171  RH  031%=      5-min Rain = 0
KSW1 121911Z 13009KT 37/17 A2996 RMK A01 T03700172  RH  031%=      5-min Rain = 0
KSW1 121912Z 14008KT 37/17 A2996 RMK A01 T03710173  RH  031%=      5-min Rain = 0
KSW1 121913Z 17011KT 37/17 A2996 RMK A01 T03730173  RH  031%=      5-min Rain = 0
KSW1 121914Z 18014KT 37/17 A2996 RMK A01 T03730173  RH  031%=      5-min Rain = 0
KSW1 121915Z 19012KT 37/17 A2996 RMK A01 T03700174  RH  032%=      5-min Rain = 0
KSW1 121916Z 17012KT 37/17 A2996 RMK A01 T03720174  RH  031%=      5-min Rain = 0
KSW1 121917Z 16014KT 37/17 A2996 RMK A01 T03720173  RH  031%=      5-min Rain = 0
KSW1 121918Z 15013G18KT 37/17 A2996 RMK A01 T03730174  RH  031%=      5-min Rain = 0
KSW1 121919Z 13015KT 38/17 A2996 RMK A01 T03770172  RH  030%=      5-min Rain = 0
KSW1 121920Z 15014KT 38/17 A2996 RMK A01 T03750171  RH  030%=      5-min Rain = 0
KSW1 121921Z 17012KT 38/17 A2996 RMK A01 T03750169  RH  030%=      5-min Rain = 0
KSW1 121922Z 18010KT 37/17 A2996 RMK A01 T03740165  RH  029%=      5-min Rain = 0
KSW1 121923Z 17015KT 37/17 A2995 RMK A01 T03720167  RH  030%=      5-min Rain = 0
KSW1 121924Z 17011KT 38/17 A2996 RMK A01 T03780173  RH  030%=      5-min Rain = 0
KSW1 121925Z 17016KT 38/17 A2995 RMK A01 T03810173  RH  030%=      5-min Rain = 0
KSW1 121926Z 16014KT 38/17 A2995 RMK A01 T03760171  RH  030%=      5-min Rain = 0
KSW1 121927Z 16011KT 38/17 A2996 RMK A01 T03750172  RH  030%=      5-min Rain = 0
KSW1 121928Z 17014KT 38/17 A2995 RMK A01 T03750170  RH  030%=      5-min Rain = 0
KSW1 121929Z 17010KT 37/17 A2996 RMK A01 T03740167  RH  030%=      5-min Rain = 0
KSW1 121930Z 15010KT 38/17 A2996 RMK A01 T03750166  RH  029%=      5-min Rain = 0
KSW1 121931Z 16010G15KT 38/16 A2995 RMK A01 T03750164  RH  029%=      5-min Rain = 0
KSW1 121932Z 16011KT 37/17 A2995 RMK A01 T03740166  RH  029%=      5-min Rain = 0
KSW1 121933Z 16013KT 37/17 A2995 RMK A01 T03740167  RH  030%=      5-min Rain = 0
KSW1 121934Z 16017KT 37/17 A2995 RMK A01 T03740165  RH  029%=      5-min Rain = 0
KSW1 121935Z 17012KT 37/16 A2995 RMK A01 T03740162  RH  029%=      5-min Rain = 0
KSW1 121936Z 17013KT 38/16 A2995 RMK A01 T03760162  RH  028%=      5-min Rain = 0
KSW1 121937Z 16013G18KT 38/16 A2995 RMK A01 T03760162  RH  028%=      5-min Rain = 0
KSW1 121938Z 16008KT 37/16 A2995 RMK A01 T03730162  RH  029%=      5-min Rain = 0
KSW1 121939Z 17010KT 38/17 A2995 RMK A01 T03750166  RH  029%=      5-min Rain = 0
KSW1 121940Z 14009KT 38/17 A2995 RMK A01 T03770169  RH  029%=      5-min Rain = 0
KSW1 121941Z 16007KT 38/17 A2995 RMK A01 T03770168  RH  029%=      5-min Rain = 0
KSW1 121942Z 16007KT 37/17 A2995 RMK A01 T03720166  RH  030%=      5-min Rain = 0
KSW1 121943Z 16015KT 37/17 A2995 RMK A01 T03690167  RH  030%=      5-min Rain = 0
KSW1 121944Z 17013G19KT 37/17 A2995 RMK A01 T03680167  RH  030%=      5-min Rain = 0
KSW1 121945Z 19013KT 37/17 A2995 RMK A01 T03670167  RH  031%=      5-min Rain = 0
KSW1 121946Z 19013KT 37/17 A2995 RMK A01 T03690167  RH  030%=      5-min Rain = 0
KSW1 121947Z 17013KT 37/17 A2995 RMK A01 T03720167  RH  030%=      5-min Rain = 0
KSW1 121948Z 15006G11KT 37/17 A2995 RMK A01 T03720167  RH  030%=      5-min Rain = 0
KSW1 121949Z 15011G16KT 37/17 A2995 RMK A01 T03720166  RH  030%=      5-min Rain = 0
KSW1 121950Z 15013KT 37/17 A2995 RMK A01 T03720167  RH  030%=      5-min Rain = 0
KSW1 121951Z 14014KT 38/17 A2995 RMK A01 T03760165  RH  029%=      5-min Rain = 0
KSW1 121952Z 15010KT 38/16 A2995 RMK A01 T03750163  RH  029%=      5-min Rain = 0
KSW1 121953Z 17011KT 38/16 A2995 RMK A01 T03750164  RH  029%=      5-min Rain = 0
KSW1 121954Z 15009KT 38/16 A2995 RMK A01 T03810162  RH  028%=      5-min Rain = 0
KSW1 121955Z 14010KT 38/16 A2995 RMK A01 T03800160  RH  027%=      5-min Rain = 0
KSW1 121956Z 15013KT 38/16 A2994 RMK A01 T03790155  RH  027%=      5-min Rain = 0
KSW1 121957Z 16015KT 38/16 A2995 RMK A01 T03810156  RH  027%=      5-min Rain = 0
KSW1 121958Z 19010G15KT 38/16 A2995 RMK A01 T03820162  RH  028%=      5-min Rain = 0
KSW1 121959Z 19007G12KT 38/16 A2994 RMK A01 T03770164  RH  028%=      5-min Rain = 0
KSW1 122000Z 14009KT 38/16 A2994 RMK A01 T03760157  RH  028%=      5-min Rain = 0
KSW1 122001Z 16010KT 38/16 A2994 RMK A01 T03760156  RH  027%=      5-min Rain = 0
KSW1 122002Z 17014KT 38/17 A2994 RMK A01 T03750165  RH  029%=      5-min Rain = 0
KSW1 122003Z 16013KT 38/17 A2994 RMK A01 T03750168  RH  030%=      5-min Rain = 0
KSW1 122004Z 17011KT 38/17 A2994 RMK A01 T03750170  RH  030%=      5-min Rain = 0
KSW1 122005Z 16008KT 37/17 A2994 RMK A01 T03740169  RH  030%=      5-min Rain = 0
KSW1 122006Z 15011G16KT 37/17 A2994 RMK A01 T03730169  RH  030%=      5-min Rain = 0
KSW1 122007Z 16014KT 38/17 A2994 RMK A01 T03760169  RH  030%=      5-min Rain = 0
KSW1 122008Z 17010KT 38/17 A2994 RMK A01 T03810169  RH  029%=      5-min Rain = 0
KSW1 122009Z 18007KT 38/17 A2994 RMK A01 T03800166  RH  028%=      5-min Rain = 0
KSW1 122010Z 15010KT 38/17 A2993 RMK A01 T03750167  RH  029%=      5-min Rain = 0
KSW1 122011Z 15016KT 38/17 A2993 RMK A01 T03770167  RH  029%=      5-min Rain = 0
KSW1 122012Z 15015KT 38/17 A2993 RMK A01 T03810166  RH  028%=      5-min Rain = 0
KSW1 122013Z 17015KT 38/17 A2993 RMK A01 T03800166  RH  029%=      5-min Rain = 0
KSW1 122014Z 17015KT 38/16 A2993 RMK A01 T03780164  RH  028%=      5-min Rain = 0
KSW1 122015Z 18013KT 38/16 A2993 RMK A01 T03780163  RH  028%=      5-min Rain = 0
KSW1 122016Z 19011KT 38/16 A2993 RMK A01 T03770164  RH  029%=      5-min Rain = 0
KSW1 122017Z 20009KT 38/17 A2993 RMK A01 T03790168  RH  029%=      5-min Rain = 0
KSW1 122018Z 21012KT 39/17 A2993 RMK A01 T03860167  RH  028%=      5-min Rain = 0
KSW1 122019Z 21007KT 39/17 A2993 RMK A01 T03850166  RH  028%=      5-min Rain = 0
KSW1 122020Z 19007KT 38/17 A2993 RMK A01 T03830166  RH  028%=      5-min Rain = 0
KSW1 122021Z 16009KT 38/17 A2993 RMK A01 T03830167  RH  028%=      5-min Rain = 0
KSW1 122022Z 15008KT 38/17 A2993 RMK A01 T03820166  RH  028%=      5-min Rain = 0
KSW1 122023Z 18010KT 38/17 A2993 RMK A01 T03810167  RH  028%=      5-min Rain = 0
KSW1 122024Z 19011KT 38/17 A2993 RMK A01 T03790166  RH  029%=      5-min Rain = 0
KSW1 122025Z 17010KT 38/17 A2993 RMK A01 T03780166  RH  029%=      5-min Rain = 0
KSW1 122026Z 16009KT 38/16 A2993 RMK A01 T03800164  RH  028%=      5-min Rain = 0
KSW1 122027Z 14011KT 38/17 A2993 RMK A01 T03780166  RH  029%=      5-min Rain = 0
KSW1 122028Z 13011KT 38/17 A2993 RMK A01 T03810168  RH  029%=      5-min Rain = 0
KSW1 122029Z 14012KT 38/17 A2993 RMK A01 T03840171  RH  029%=      5-min Rain = 0
KSW1 122030Z 15011KT 39/17 A2993 RMK A01 T03850170  RH  029%=      5-min Rain = 0
KSW1 122031Z 18012KT 38/17 A2993 RMK A01 T03830166  RH  028%=      5-min Rain = 0
KSW1 122032Z 19011KT 38/16 A2993 RMK A01 T03840163  RH  027%=      5-min Rain = 0
KSW1 122033Z 17011KT 39/16 A2993 RMK A01 T03850163  RH  027%=      5-min Rain = 0
KSW1 122034Z 18010KT 39/16 A2993 RMK A01 T03870163  RH  027%=      5-min Rain = 0
KSW1 122035Z 18013KT 39/16 A2992 RMK A01 T03910164  RH  026%=      5-min Rain = 0
KSW1 122036Z 18012KT 39/16 A2993 RMK A01 T03900160  RH  026%=      5-min Rain = 0
KSW1 122037Z 17013G18KT 38/16 A2993 RMK A01 T03820159  RH  027%=      5-min Rain = 0
KSW1 122038Z 16014KT 38/16 A2993 RMK A01 T03820160  RH  027%=      5-min Rain = 0
KSW1 122039Z 17011KT 38/16 A2993 RMK A01 T03830160  RH  027%=      5-min Rain = 0
KSW1 122040Z 17011KT 39/16 A2993 RMK A01 T03850161  RH  027%=      5-min Rain = 0
KSW1 122041Z 20007KT 38/16 A2993 RMK A01 T03820161  RH  027%=      5-min Rain = 0
KSW1 122042Z 20004KT 38/16 A2992 RMK A01 T03820161  RH  027%=      5-min Rain = 0
KSW1 122043Z 17010KT 39/16 A2992 RMK A01 T03850164  RH  027%=      5-min Rain = 0
KSW1 122044Z 17009KT 39/17 A2992 RMK A01 T03890165  RH  027%=      5-min Rain = 0
KSW1 122045Z 17008KT 39/16 A2992 RMK A01 T03860162  RH  027%=      5-min Rain = 0
KSW1 122046Z 16012G17KT 38/16 A2992 RMK A01 T03830163  RH  028%=      5-min Rain = 0
KSW1 122047Z 15015G21KT 38/17 A2992 RMK A01 T03830167  RH  028%=      5-min Rain = 0
KSW1 122048Z 15012KT 39/17 A2992 RMK A01 T03850168  RH  028%=      5-min Rain = 0
KSW1 122049Z 16012G17KT 38/17 A2992 RMK A01 T03840168  RH  028%=      5-min Rain = 0
KSW1 122050Z 15015KT 39/17 A2992 RMK A01 T03850169  RH  028%=      5-min Rain = 0
KSW1 122051Z 14017KT 39/17 A2992 RMK A01 T03860167  RH  028%=      5-min Rain = 0
KSW1 122052Z 14013KT 38/17 A2992 RMK A01 T03820166  RH  028%=      5-min Rain = 0
KSW1 122053Z 14014KT 38/17 A2992 RMK A01 T03830167  RH  028%=      5-min Rain = 0
KSW1 122054Z 14009KT 38/17 A2992 RMK A01 T03830165  RH  028%=      5-min Rain = 0
KSW1 122055Z 17011KT 38/17 A2992 RMK A01 T03830166  RH  028%=      5-min Rain = 0
KSW1 122056Z 16016KT 38/16 A2992 RMK A01 T03840164  RH  027%=      5-min Rain = 0
KSW1 122057Z 15013G20KT 39/16 A2992 RMK A01 T03850164  RH  027%=      5-min Rain = 0
KSW1 122058Z 15017KT 39/16 A2992 RMK A01 T03860162  RH  027%=      5-min Rain = 0
KSW1 122059Z 15010KT 39/16 A2992 RMK A01 T03860161  RH  027%=      5-min Rain = 0
KSW1 122100Z 17011KT 39/16 A2992 RMK A01 T03860163  RH  027%=      5-min Rain = 0
KSW1 122101Z 16013KT 39/16 A2992 RMK A01 T03890162  RH  026%=      5-min Rain = 0
KSW1 122102Z 16011KT 39/16 A2992 RMK A01 T03860161  RH  027%=      5-min Rain = 0
KSW1 122103Z 17009KT 38/16 A2992 RMK A01 T03810162  RH  028%=      5-min Rain = 0
KSW1 122104Z 19013KT 39/16 A2992 RMK A01 T03860163  RH  027%=      5-min Rain = 0
KSW1 122105Z 18012KT 39/16 A2992 RMK A01 T03880162  RH  027%=      5-min Rain = 0
KSW1 122106Z 19012KT 39/16 A2992 RMK A01 T03860161  RH  027%=      5-min Rain = 0
KSW1 122107Z 20010KT 39/16 A2992 RMK A01 T03860162  RH  027%=      5-min Rain = 0
KSW1 122108Z 19009KT 39/16 A2992 RMK A01 T03900161  RH  026%=      5-min Rain = 0
KSW1 122109Z 17009KT 39/16 A2992 RMK A01 T03890162  RH  026%=      5-min Rain = 0
KSW1 122110Z 17013KT 39/16 A2991 RMK A01 T03890162  RH  027%=      5-min Rain = 0
KSW1 122111Z 17012KT 39/16 A2991 RMK A01 T03880162  RH  027%=      5-min Rain = 0
KSW1 122112Z 19011KT 39/16 A2991 RMK A01 T03860162  RH  027%=      5-min Rain = 0
KSW1 122113Z 20009KT 39/16 A2991 RMK A01 T03860161  RH  027%=      5-min Rain = 0
KSW1 122114Z 20008KT 38/16 A2991 RMK A01 T03830161  RH  027%=      5-min Rain = 0
KSW1 122115Z 18008KT 38/16 A2991 RMK A01 T03830161  RH  027%=      5-min Rain = 0
KSW1 122116Z 16009KT 38/16 A2991 RMK A01 T03820163  RH  028%=      5-min Rain = 0
KSW1 122117Z 16011KT 38/16 A2991 RMK A01 T03820164  RH  028%=      5-min Rain = 0
KSW1 122118Z 16016KT 38/16 A2991 RMK A01 T03840164  RH  027%=      5-min Rain = 0
KSW1 122119Z 17015KT 39/16 A2991 RMK A01 T03870163  RH  027%=      5-min Rain = 0
KSW1 122120Z 17013G18KT 39/16 A2991 RMK A01 T03850162  RH  027%=      5-min Rain = 0
KSW1 122121Z 15013KT 39/16 A2991 RMK A01 T03850162  RH  027%=      5-min Rain = 0
KSW1 122122Z 15011G16KT 39/16 A2991 RMK A01 T03860161  RH  027%=      5-min Rain = 0
KSW1 122123Z 17010G15KT 39/16 A2991 RMK A01 T03850162  RH  027%=      5-min Rain = 0
KSW1 122124Z 16008KT 39/16 A2991 RMK A01 T03870161  RH  027%=      5-min Rain = 0
KSW1 122125Z 14009KT 39/16 A2991 RMK A01 T03860162  RH  027%=      5-min Rain = 0
KSW1 122126Z 15013KT 39/16 A2991 RMK A01 T03860163  RH  027%=      5-min Rain = 0
KSW1 122127Z 15011KT 39/16 A2991 RMK A01 T03890162  RH  026%=      5-min Rain = 0
KSW1 122128Z 15011KT 39/16 A2991 RMK A01 T03880161  RH  026%=      5-min Rain = 0
KSW1 122129Z 15008KT 39/16 A2991 RMK A01 T03860162  RH  027%=      5-min Rain = 0
KSW1 122130Z 17011KT 39/16 A299 RMK A01 T03900164  RH  027%=      5-min Rain = 0
KSW1 122131Z 16014KT 39/17 A299 RMK A01 T03920165  RH  026%=      5-min Rain = 0
KSW1 122132Z 16014KT 39/17 A299 RMK A01 T03900165  RH  027%=      5-min Rain = 0
KSW1 122133Z 17015KT 39/16 A299 RMK A01 T03890164  RH  027%=      5-min Rain = 0
KSW1 122134Z 17014KT 39/16 A299 RMK A01 T03870164  RH  027%=      5-min Rain = 0
KSW1 122135Z 16013KT 39/16 A299 RMK A01 T03870163  RH  027%=      5-min Rain = 0
KSW1 122136Z 17011KT 39/16 A299 RMK A01 T03850164  RH  027%=      5-min Rain = 0
KSW1 122137Z 17012KT 39/16 A299 RMK A01 T03850164  RH  027%=      5-min Rain = 0
KSW1 122138Z 15013KT 38/16 A299 RMK A01 T03840164  RH  027%=      5-min Rain = 0
KSW1 122139Z 15012KT 38/16 A299 RMK A01 T03840163  RH  027%=      5-min Rain = 0
KSW1 122140Z 16009KT 38/16 A299 RMK A01 T03830164  RH  028%=      5-min Rain = 0
KSW1 122141Z 16014KT 38/16 A299 RMK A01 T03840164  RH  028%=      5-min Rain = 0
KSW1 122142Z 15014KT 39/17 A299 RMK A01 T03850165  RH  028%=      5-min Rain = 0
KSW1 122143Z 14013KT 39/17 A299 RMK A01 T03870165  RH  027%=      5-min Rain = 0
KSW1 122144Z 14012KT 39/16 A299 RMK A01 T03870164  RH  027%=      5-min Rain = 0
KSW1 122145Z 14010KT 38/16 A299 RMK A01 T03840164  RH  028%=      5-min Rain = 0
KSW1 122146Z 15010KT 39/16 A299 RMK A01 T03850164  RH  027%=      5-min Rain = 0
KSW1 122147Z 14008KT 39/16 A2989 RMK A01 T03850164  RH  027%=      5-min Rain = 0
KSW1 122148Z 15009KT 38/17 A2989 RMK A01 T03840165  RH  028%=      5-min Rain = 0
KSW1 122149Z 18013G18KT 39/17 A2989 RMK A01 T03870166  RH  027%=      5-min Rain = 0
KSW1 122150Z 18014KT 39/17 A299 RMK A01 T03900165  RH  027%=      5-min Rain = 0
KSW1 122151Z 18010KT 39/16 A2989 RMK A01 T03860164  RH  027%=      5-min Rain = 0
KSW1 122152Z 16011KT 38/16 A2989 RMK A01 T03840164  RH  027%=      5-min Rain = 0
KSW1 122153Z 17013KT 38/17 A2989 RMK A01 T03840165  RH  028%=      5-min Rain = 0
KSW1 122154Z 18012KT 38/17 A2989 RMK A01 T03840165  RH  028%=      5-min Rain = 0
KSW1 122155Z 19011G16KT 39/17 A2989 RMK A01 T03850166  RH  028%=      5-min Rain = 0
KSW1 122156Z 19015KT 39/17 A2989 RMK A01 T03870165  RH  027%=      5-min Rain = 0
KSW1 122157Z 19015KT 39/16 A2989 RMK A01 T03880164  RH  027%=      5-min Rain = 0
KSW1 122158Z 18013G18KT 39/16 A2989 RMK A01 T03860163  RH  027%=      5-min Rain = 0
KSW1 122159Z 15011KT 39/16 A2989 RMK A01 T03850163  RH  027%=      5-min Rain = 0
KSW1 122200Z 15010KT 39/16 A2989 RMK A01 T03870161  RH  027%=      5-min Rain = 0
KSW1 122201Z 16011KT 39/16 A2989 RMK A01 T03870164  RH  027%=      5-min Rain = 0
KSW1 122202Z 15012KT 39/16 A2989 RMK A01 T03880164  RH  027%=      5-min Rain = 0
KSW1 122203Z 18013KT 39/16 A2989 RMK A01 T03880164  RH  027%=      5-min Rain = 0
KSW1 122204Z 18012KT 39/16 A2989 RMK A01 T03870163  RH  027%=      5-min Rain = 0
KSW1 122205Z 18012KT 39/16 A2989 RMK A01 T03880163  RH  027%=      5-min Rain = 0
KSW1 122206Z 17011KT 39/16 A2989 RMK A01 T03860163  RH  027%=      5-min Rain = 0
KSW1 122207Z 17013KT 39/16 A2989 RMK A01 T03850163  RH  027%=      5-min Rain = 0
KSW1 122208Z 18012KT 39/16 A2989 RMK A01 T03850163  RH  027%=      5-min Rain = 0
KSW1 122209Z 19010KT 39/16 A2989 RMK A01 T03860163  RH  027%=      5-min Rain = 0
KSW1 122210Z 19013KT 39/16 A2989 RMK A01 T03850164  RH  027%=      5-min Rain = 0
KSW1 122211Z 19013KT 39/16 A2989 RMK A01 T03860164  RH  027%=      5-min Rain = 0
KSW1 122212Z 18009KT 38/16 A2989 RMK A01 T03840163  RH  027%=      5-min Rain = 0
KSW1 122213Z 17010KT 39/17 A2989 RMK A01 T03860165  RH  027%=      5-min Rain = 0
KSW1 122214Z 18009KT 39/17 A2989 RMK A01 T03880165  RH  027%=      5-min Rain = 0
KSW1 122215Z 16013G18KT 39/17 A2989 RMK A01 T03900166  RH  027%=      5-min Rain = 0
KSW1 122216Z 16011G16KT 39/17 A2989 RMK A01 T03890166  RH  027%=      5-min Rain = 0
KSW1 122217Z 17012KT 39/17 A2989 RMK A01 T03890166  RH  027%=      5-min Rain = 0
KSW1 122218Z 19013KT 39/17 A2989 RMK A01 T03890166  RH  027%=      5-min Rain = 0
KSW1 122219Z 19012KT 39/17 A2989 RMK A01 T03870165  RH  027%=      5-min Rain = 0
KSW1 122220Z 18011KT 39/17 A2988 RMK A01 T03850166  RH  028%=      5-min Rain = 0
KSW1 122221Z 16011KT 38/17 A2989 RMK A01 T03840165  RH  028%=      5-min Rain = 0
KSW1 122222Z 14015KT 38/17 A2988 RMK A01 T03840167  RH  028%=      5-min Rain = 0
KSW1 122223Z 15019KT 39/17 A2988 RMK A01 T03860167  RH  028%=      5-min Rain = 0
KSW1 122224Z 16019KT 39/17 A2988 RMK A01 T03870166  RH  027%=      5-min Rain = 0
KSW1 122225Z 17017KT 39/17 A2988 RMK A01 T03850166  RH  028%=      5-min Rain = 0
KSW1 122226Z 18013KT 38/17 A2988 RMK A01 T03840167  RH  028%=      5-min Rain = 0
KSW1 122227Z 17012KT 38/17 A2988 RMK A01 T03820167  RH  028%=      5-min Rain = 0
KSW1 122228Z 16012KT 38/17 A2988 RMK A01 T03820168  RH  028%=      5-min Rain = 0
KSW1 122229Z 15015KT 38/17 A2988 RMK A01 T03830167  RH  028%=      5-min Rain = 0
KSW1 122230Z 15014KT 38/17 A2988 RMK A01 T03830167  RH  028%=      5-min Rain = 0
KSW1 122231Z 14013KT 38/17 A2988 RMK A01 T03830167  RH  028%=      5-min Rain = 0
KSW1 122232Z 13015KT 38/17 A2988 RMK A01 T03840167  RH  028%=      5-min Rain = 0
KSW1 122233Z 14013KT 38/17 A2988 RMK A01 T03830167  RH  028%=      5-min Rain = 0
KSW1 122234Z 14012G17KT 38/17 A2988 RMK A01 T03830167  RH  028%=      5-min Rain = 0
KSW1 122235Z 16014KT 39/17 A2988 RMK A01 T03850167  RH  028%=      5-min Rain = 0
KSW1 122236Z 15013KT 39/17 A2988 RMK A01 T03850166  RH  028%=      5-min Rain = 0
KSW1 122237Z 13011KT 38/17 A2988 RMK A01 T03830167  RH  028%=      5-min Rain = 0
KSW1 122238Z 13012G17KT 38/17 A2988 RMK A01 T03830166  RH  028%=      5-min Rain = 0
KSW1 122239Z 14011KT 39/17 A2988 RMK A01 T03850167  RH  028%=      5-min Rain = 0
KSW1 122240Z 17014KT 39/17 A2988 RMK A01 T03860167  RH  028%=      5-min Rain = 0
KSW1 122241Z 17014KT 39/17 A2988 RMK A01 T03870167  RH  028%=      5-min Rain = 0
KSW1 122242Z 16014KT 39/17 A2988 RMK A01 T03860167  RH  028%=      5-min Rain = 0
KSW1 122243Z 17013KT 39/17 A2988 RMK A01 T03860167  RH  028%=      5-min Rain = 0
KSW1 122244Z 17012KT 39/17 A2988 RMK A01 T03850166  RH  028%=      5-min Rain = 0
KSW1 122245Z 17010KT 38/17 A2988 RMK A01 T03830167  RH  028%=      5-min Rain = 0
KSW1 122246Z 17012KT 38/17 A2988 RMK A01 T03800166  RH  028%=      5-min Rain = 0
KSW1 122247Z 16011KT 38/17 A2988 RMK A01 T03780166  RH  029%=      5-min Rain = 0
KSW1 122248Z 14012KT 38/17 A2988 RMK A01 T03770166  RH  029%=      5-min Rain = 0
KSW1 122249Z 14012KT 38/17 A2988 RMK A01 T03760165  RH  029%=      5-min Rain = 0
KSW1 122250Z 13013G19KT 38/17 A2988 RMK A01 T03750165  RH  029%=      5-min Rain = 0
KSW1 122251Z 15018KT 38/17 A2988 RMK A01 T03760165  RH  029%=      5-min Rain = 0
KSW1 122252Z 18017KT 38/17 A2988 RMK A01 T03780166  RH  029%=      5-min Rain = 0
KSW1 122253Z 16017G22KT 38/17 A2988 RMK A01 T03790166  RH  029%=      5-min Rain = 0
KSW1 122254Z 16014KT 38/17 A2988 RMK A01 T03780166  RH  029%=      5-min Rain = 0
KSW1 122255Z 15011KT 38/17 A2988 RMK A01 T03760166  RH  029%=      5-min Rain = 0
KSW1 122256Z 15012KT 38/17 A2988 RMK A01 T03760166  RH  029%=      5-min Rain = 0
KSW1 122257Z 15014KT 38/17 A2988 RMK A01 T03750166  RH  029%=      5-min Rain = 0
KSW1 122258Z 16013KT 37/17 A2988 RMK A01 T03740165  RH  029%=      5-min Rain = 0
KSW1 122259Z 16014KT 37/17 A2988 RMK A01 T03730166  RH  030%=      5-min Rain = 0
KSW1 122300Z 17010KT 37/17 A2988 RMK A01 T03720165  RH  030%=      5-min Rain = 0
KSW1 122301Z 16009KT 37/17 A2988 RMK A01 T03720166  RH  030%=      5-min Rain = 0
KSW1 122302Z 16010KT 37/17 A2988 RMK A01 T03710166  RH  030%=      5-min Rain = 0
KSW1 122303Z 16013KT 37/17 A2988 RMK A01 T03710166  RH  030%=      5-min Rain = 0
KSW1 122304Z 16011KT 37/17 A2987 RMK A01 T03710165  RH  030%=      5-min Rain = 0
KSW1 122305Z 15011KT 37/17 A2987 RMK A01 T03720166  RH  030%=      5-min Rain = 0
KSW1 122306Z 15010KT 37/17 A2987 RMK A01 T03740166  RH  029%=      5-min Rain = 0
KSW1 122307Z 14011KT 38/17 A2987 RMK A01 T03770166  RH  029%=      5-min Rain = 0
KSW1 122308Z 16015KT 38/17 A2987 RMK A01 T03800167  RH  029%=      5-min Rain = 0
KSW1 122309Z 15015KT 38/17 A2987 RMK A01 T03820166  RH  028%=      5-min Rain = 0
KSW1 122310Z 15014KT 38/17 A2987 RMK A01 T03820165  RH  028%=      5-min Rain = 0
KSW1 122311Z 15014KT 38/17 A2987 RMK A01 T03820165  RH  028%=      5-min Rain = 0
KSW1 122312Z 15012KT 38/17 A2987 RMK A01 T03810165  RH  028%=      5-min Rain = 0
KSW1 122313Z 15012KT 38/17 A2987 RMK A01 T03800165  RH  028%=      5-min Rain = 0
KSW1 122314Z 14010G15KT 38/17 A2987 RMK A01 T03810166  RH  028%=      5-min Rain = 0
KSW1 122315Z 16012KT 38/17 A2987 RMK A01 T03810166  RH  028%=      5-min Rain = 0
KSW1 122316Z 15013KT 38/17 A2987 RMK A01 T03830166  RH  028%=      5-min Rain = 0
KSW1 122317Z 15013KT 38/17 A2987 RMK A01 T03830165  RH  028%=      5-min Rain = 0
KSW1 122318Z 15010KT 38/17 A2987 RMK A01 T03830165  RH  028%=      5-min Rain = 0
KSW1 122319Z 14013KT 38/17 A2987 RMK A01 T03830165  RH  028%=      5-min Rain = 0
KSW1 122320Z 14013KT 38/17 A2987 RMK A01 T03820165  RH  028%=      5-min Rain = 0
KSW1 122321Z 14011KT 38/16 A2987 RMK A01 T03790164  RH  028%=      5-min Rain = 0
KSW1 122322Z 16010KT 38/17 A2987 RMK A01 T03770165  RH  029%=      5-min Rain = 0
KSW1 122323Z 17012KT 38/17 A2987 RMK A01 T03760165  RH  029%=      5-min Rain = 0
KSW1 122324Z 16012KT 38/16 A2987 RMK A01 T03750163  RH  029%=      5-min Rain = 0
KSW1 122325Z 16014KT 37/16 A2987 RMK A01 T03730164  RH  029%=      5-min Rain = 0
KSW1 122326Z 15013KT 37/16 A2987 RMK A01 T03720163  RH  029%=      5-min Rain = 0
KSW1 122327Z 15014KT 37/16 A2987 RMK A01 T03720163  RH  029%=      5-min Rain = 0
KSW1 122328Z 15013KT 37/16 A2987 RMK A01 T03730163  RH  029%=      5-min Rain = 0
KSW1 122329Z 14009KT 37/16 A2987 RMK A01 T03740163  RH  029%=      5-min Rain = 0
KSW1 122330Z 13013KT 38/16 A2987 RMK A01 T03770163  RH  029%=      5-min Rain = 0
KSW1 122331Z 13014KT 38/16 A2987 RMK A01 T03770163  RH  028%=      5-min Rain = 0
KSW1 122332Z 14011KT 38/16 A2987 RMK A01 T03770163  RH  028%=      5-min Rain = 0
KSW1 122333Z 14011KT 38/16 A2987 RMK A01 T03780164  RH  028%=      5-min Rain = 0
KSW1 122334Z 15014KT 38/16 A2987 RMK A01 T03800164  RH  028%=      5-min Rain = 0
KSW1 122335Z 14013G18KT 38/16 A2987 RMK A01 T03800164  RH  028%=      5-min Rain = 0
KSW1 122336Z 14014KT 38/16 A2987 RMK A01 T03790163  RH  028%=      5-min Rain = 0
KSW1 122337Z 13013KT 38/16 A2987 RMK A01 T03780163  RH  028%=      5-min Rain = 0
KSW1 122338Z 13016KT 38/16 A2987 RMK A01 T03790163  RH  028%=      5-min Rain = 0
KSW1 122339Z 13019KT 38/16 A2987 RMK A01 T03790163  RH  028%=      5-min Rain = 0
KSW1 122340Z 15013KT 38/16 A2987 RMK A01 T03780163  RH  028%=      5-min Rain = 0
KSW1 122341Z 13014KT 38/16 A2987 RMK A01 T03790163  RH  028%=      5-min Rain = 0
KSW1 122342Z 15013KT 38/16 A2987 RMK A01 T03790163  RH  028%=      5-min Rain = 0
KSW1 122343Z 14014KT 38/16 A2987 RMK A01 T03780164  RH  028%=      5-min Rain = 0
KSW1 122344Z 14014KT 38/16 A2987 RMK A01 T03780163  RH  028%=      5-min Rain = 0
KSW1 122345Z 14015KT 38/16 A2987 RMK A01 T03770162  RH  028%=      5-min Rain = 0
KSW1 122346Z 14014KT 38/16 A2987 RMK A01 T03760162  RH  028%=      5-min Rain = 0
KSW1 122347Z 14014KT 38/16 A2987 RMK A01 T03760162  RH  028%=      5-min Rain = 0
KSW1 122348Z 15012KT 38/16 A2987 RMK A01 T03760162  RH  028%=      5-min Rain = 0
KSW1 122349Z 15014KT 38/16 A2986 RMK A01 T03760162  RH  028%=      5-min Rain = 0
KSW1 122350Z 16015KT 38/16 A2986 RMK A01 T03770163  RH  028%=      5-min Rain = 0
KSW1 122351Z 15014G19KT 38/16 A2986 RMK A01 T03770163  RH  028%=      5-min Rain = 0
KSW1 122352Z 15013KT 38/16 A2986 RMK A01 T03770163  RH  028%=      5-min Rain = 0
KSW1 122353Z 14013KT 38/16 A2986 RMK A01 T03770162  RH  028%=      5-min Rain = 0
KSW1 122354Z 15011G16KT 38/16 A2986 RMK A01 T03770162  RH  028%=      5-min Rain = 0
KSW1 122355Z 15013KT 38/16 A2986 RMK A01 T03780163  RH  028%=      5-min Rain = 0
KSW1 122356Z 15013KT 38/16 A2986 RMK A01 T03780162  RH  028%=      5-min Rain = 0
KSW1 122357Z 15011KT 38/16 A2986 RMK A01 T03770162  RH  028%=      5-min Rain = 0
KSW1 122358Z 15011G16KT 38/16 A2986 RMK A01 T03780162  RH  028%=      5-min Rain = 0
KSW1 122359Z 14014KT 38/16 A2986 RMK A01 T03770161  RH  028%=      5-min Rain = 0
KSW1 130000Z 13013KT 38/16 A2986 RMK A01 T03760161  RH  028%=      5-min Rain = 0
KSW1 130001Z 14012KT 38/16 A2986 RMK A01 T03750161  RH  028%=      5-min Rain = 0
KSW1 130002Z 13014KT 38/16 A2986 RMK A01 T03750161  RH  028%=      5-min Rain = 0
KSW1 130003Z 14014KT 38/16 A2986 RMK A01 T03750161  RH  028%=      5-min Rain = 0
KSW1 130004Z 14014KT 37/16 A2986 RMK A01 T03740161  RH  028%=      5-min Rain = 0
KSW1 130005Z 14015KT 37/16 A2986 RMK A01 T03740161  RH  029%=      5-min Rain = 0
KSW1 130006Z 14015KT 37/16 A2986 RMK A01 T03740161  RH  029%=      5-min Rain = 0
KSW1 130007Z 14014KT 37/16 A2986 RMK A01 T03730160  RH  029%=      5-min Rain = 0
KSW1 130008Z 14012KT 37/16 A2986 RMK A01 T03730161  RH  029%=      5-min Rain = 0
KSW1 130009Z 14014G19KT 37/16 A2986 RMK A01 T03730161  RH  029%=      5-min Rain = 0
KSW1 130010Z 14016G21KT 37/16 A2986 RMK A01 T03730160  RH  029%=      5-min Rain = 0
KSW1 130011Z 15014KT 37/16 A2986 RMK A01 T03720160  RH  029%=      5-min Rain = 0
KSW1 130012Z 15012KT 37/16 A2986 RMK A01 T03720161  RH  029%=      5-min Rain = 0
KSW1 130013Z 15015KT 37/16 A2986 RMK A01 T03720161  RH  029%=      5-min Rain = 0
KSW1 130014Z 15013KT 37/16 A2986 RMK A01 T03720161  RH  029%=      5-min Rain = 0
KSW1 130015Z 15014KT 37/16 A2986 RMK A01 T03710161  RH  029%=      5-min Rain = 0
KSW1 130016Z 13013KT 37/16 A2986 RMK A01 T03710160  RH  029%=      5-min Rain = 0
KSW1 130017Z 14014KT 37/16 A2986 RMK A01 T03710161  RH  029%=      5-min Rain = 0
KSW1 130018Z 14013KT 37/16 A2986 RMK A01 T03700160  RH  029%=      5-min Rain = 0
KSW1 130019Z 14013KT 37/16 A2986 RMK A01 T03710161  RH  029%=      5-min Rain = 0
KSW1 130020Z 14015KT 37/16 A2986 RMK A01 T03700160  RH  029%=      5-min Rain = 0
KSW1 130021Z 14012KT 37/16 A2986 RMK A01 T03700161  RH  029%=      5-min Rain = 0
KSW1 130022Z 15014KT 37/16 A2986 RMK A01 T03700161  RH  029%=      5-min Rain = 0
KSW1 130023Z 14013KT 37/16 A2986 RMK A01 T03700160  RH  029%=      5-min Rain = 0
KSW1 130024Z 14014G19KT 37/16 A2986 RMK A01 T03700160  RH  029%=      5-min Rain = 0
KSW1 130025Z 14014KT 37/16 A2986 RMK A01 T03690160  RH  029%=      5-min Rain = 0
KSW1 130026Z 14016KT 37/16 A2986 RMK A01 T03690160  RH  029%=      5-min Rain = 0
KSW1 130027Z 14015KT 37/16 A2986 RMK A01 T03680160  RH  029%=      5-min Rain = 0
KSW1 130028Z 14013KT 37/16 A2986 RMK A01 T03680160  RH  029%=      5-min Rain = 0
KSW1 130029Z 13013KT 37/16 A2986 RMK A01 T03680160  RH  029%=      5-min Rain = 0
KSW1 130030Z 14011KT 37/16 A2986 RMK A01 T03680161  RH  029%=      5-min Rain = 0
KSW1 130031Z 15013KT 37/16 A2986 RMK A01 T03680161  RH  029%=      5-min Rain = 0
KSW1 130032Z 14010KT 37/16 A2986 RMK A01 T03670161  RH  030%=      5-min Rain = 0
KSW1 130033Z 13013KT 37/16 A2986 RMK A01 T03670161  RH  030%=      5-min Rain = 0
KSW1 130034Z 13012KT 37/16 A2986 RMK A01 T03660161  RH  030%=      5-min Rain = 0
KSW1 130035Z 14014KT 37/16 A2986 RMK A01 T03660161  RH  030%=      5-min Rain = 0
KSW1 130036Z 13015KT 37/16 A2986 RMK A01 T03660160  RH  030%=      5-min Rain = 0
KSW1 130037Z 14012KT 37/16 A2986 RMK A01 T03650160  RH  030%=      5-min Rain = 0
KSW1 130038Z 15014KT 37/16 A2986 RMK A01 T03650160  RH  030%=      5-min Rain = 0
KSW1 130039Z 14012KT 37/16 A2986 RMK A01 T03650160  RH  030%=      5-min Rain = 0
KSW1 130040Z 14011KT 37/16 A2986 RMK A01 T03650161  RH  030%=      5-min Rain = 0
KSW1 130041Z 15013KT 37/16 A2986 RMK A01 T03650160  RH  030%=      5-min Rain = 0
KSW1 130042Z 14013KT 37/16 A2986 RMK A01 T03650161  RH  030%=      5-min Rain = 0
KSW1 130043Z 14012KT 36/16 A2986 RMK A01 T03640161  RH  030%=      5-min Rain = 0
KSW1 130044Z 14012G17KT 36/16 A2986 RMK A01 T03640161  RH  030%=      5-min Rain = 0
KSW1 130045Z 14014KT 36/16 A2986 RMK A01 T03640161  RH  030%=      5-min Rain = 0
KSW1 130046Z 14014KT 36/16 A2987 RMK A01 T03630160  RH  030%=      5-min Rain = 0
KSW1 130047Z 14014KT 36/16 A2986 RMK A01 T03630160  RH  030%=      5-min Rain = 0
KSW1 130048Z 14013KT 36/16 A2986 RMK A01 T03620160  RH  030%=      5-min Rain = 0
KSW1 130049Z 13015KT 36/16 A2987 RMK A01 T03620161  RH  030%=      5-min Rain = 0
KSW1 130050Z 14013KT 36/16 A2987 RMK A01 T03610160  RH  030%=      5-min Rain = 0
KSW1 130051Z 14016KT 36/16 A2987 RMK A01 T03610161  RH  030%=      5-min Rain = 0
KSW1 130052Z 15017KT 36/16 A2987 RMK A01 T03610161  RH  031%=      5-min Rain = 0
KSW1 130053Z 14014KT 36/16 A2987 RMK A01 T03610160  RH  031%=      5-min Rain = 0
KSW1 130054Z 13015KT 36/16 A2987 RMK A01 T03600161  RH  031%=      5-min Rain = 0
KSW1 130055Z 14012KT 36/16 A2987 RMK A01 T03600161  RH  031%=      5-min Rain = 0
KSW1 130056Z 14013G18KT 36/16 A2987 RMK A01 T03600161  RH  031%=      5-min Rain = 0
KSW1 130057Z 14013G18KT 36/16 A2987 RMK A01 T03590161  RH  031%=      5-min Rain = 0
KSW1 130058Z 14013KT 36/16 A2987 RMK A01 T03580161  RH  031%=      5-min Rain = 0
KSW1 130059Z 13012KT 36/16 A2987 RMK A01 T03580161  RH  031%=      5-min Rain = 0
KSW1 130100Z 14012G18KT 36/16 A2987 RMK A01 T03580162  RH  031%=      5-min Rain = 0
KSW1 130101Z 13014KT 36/16 A2987 RMK A01 T03570161  RH  031%=      5-min Rain = 0
KSW1 130102Z 14014G19KT 36/16 A2987 RMK A01 T03560161  RH  031%=      5-min Rain = 0
KSW1 130103Z 14015KT 36/16 A2987 RMK A01 T03560161  RH  031%=      5-min Rain = 0
KSW1 130104Z 13015KT 36/16 A2987 RMK A01 T03550161  RH  032%=      5-min Rain = 0
KSW1 130105Z 14015KT 36/16 A2987 RMK A01 T03550161  RH  032%=      5-min Rain = 0
KSW1 130106Z 14012KT 36/16 A2987 RMK A01 T03550161  RH  032%=      5-min Rain = 0
KSW1 130107Z 13013KT 35/16 A2987 RMK A01 T03540161  RH  032%=      5-min Rain = 0
KSW1 130108Z 13013G18KT 35/16 A2987 RMK A01 T03530161  RH  032%=      5-min Rain = 0
KSW1 130109Z 14012KT 35/16 A2987 RMK A01 T03530161  RH  032%=      5-min Rain = 0
KSW1 130110Z 13014KT 35/16 A2987 RMK A01 T03530161  RH  032%=      5-min Rain = 0
KSW1 130111Z 14014KT 35/16 A2987 RMK A01 T03520161  RH  032%=      5-min Rain = 0
KSW1 130112Z 13016KT 35/16 A2987 RMK A01 T03530161  RH  032%=      5-min Rain = 0
KSW1 130113Z 14013KT 35/16 A2987 RMK A01 T03520161  RH  032%=      5-min Rain = 0
KSW1 130114Z 14013KT 35/16 A2987 RMK A01 T03520161  RH  032%=      5-min Rain = 0
KSW1 130115Z 14013KT 35/16 A2987 RMK A01 T03520161  RH  032%=      5-min Rain = 0
KSW1 130116Z 14012KT 35/16 A2987 RMK A01 T03520161  RH  032%=      5-min Rain = 0
KSW1 130117Z 14013KT 35/16 A2987 RMK A01 T03510161  RH  032%=      5-min Rain = 0
KSW1 130118Z 14012KT 35/16 A2987 RMK A01 T03500161  RH  032%=      5-min Rain = 0
KSW1 130119Z 14013KT 35/16 A2987 RMK A01 T03500161  RH  032%=      5-min Rain = 0
KSW1 130120Z 13010KT 35/16 A2987 RMK A01 T03500161  RH  033%=      5-min Rain = 0
KSW1 130121Z 13011KT 35/16 A2987 RMK A01 T03490161  RH  033%=      5-min Rain = 0
KSW1 130122Z 14011KT 35/16 A2987 RMK A01 T03490161  RH  033%=      5-min Rain = 0
KSW1 130123Z 14011KT 35/16 A2987 RMK A01 T03480161  RH  033%=      5-min Rain = 0
KSW1 130124Z 14010KT 35/16 A2987 RMK A01 T03480161  RH  033%=      5-min Rain = 0
KSW1 130125Z 14011KT 35/16 A2987 RMK A01 T03480161  RH  033%=      5-min Rain = 0
KSW1 130126Z 14012KT 35/16 A2987 RMK A01 T03470161  RH  033%=      5-min Rain = 0
KSW1 130127Z 14012KT 35/16 A2987 RMK A01 T03470161  RH  033%=      5-min Rain = 0
KSW1 130128Z 14012KT 35/16 A2987 RMK A01 T03470161  RH  033%=      5-min Rain = 0
KSW1 130129Z 14011KT 35/16 A2987 RMK A01 T03470160  RH  033%=      5-min Rain = 0
KSW1 130130Z 14012KT 35/16 A2987 RMK A01 T03470160  RH  033%=      5-min Rain = 0
KSW1 130131Z 14012KT 35/16 A2987 RMK A01 T03470160  RH  033%=      5-min Rain = 0
KSW1 130132Z 14012KT 35/16 A2987 RMK A01 T03470160  RH  033%=      5-min Rain = 0
KSW1 130133Z 14011KT 35/16 A2987 RMK A01 T03460160  RH  033%=      5-min Rain = 0
KSW1 130134Z 14010KT 35/16 A2987 RMK A01 T03460160  RH  033%=      5-min Rain = 0
KSW1 130135Z 14010KT 35/16 A2987 RMK A01 T03450160  RH  033%=      5-min Rain = 0
KSW1 130136Z 14013KT 35/16 A2987 RMK A01 T03450159  RH  033%=      5-min Rain = 0
KSW1 130137Z 14013KT 35/16 A2987 RMK A01 T03450159  RH  033%=      5-min Rain = 0
KSW1 130138Z 14011KT 35/16 A2987 RMK A01 T03450159  RH  033%=      5-min Rain = 0
KSW1 130139Z 14010KT 35/16 A2987 RMK A01 T03450159  RH  033%=      5-min Rain = 0
KSW1 130140Z 14012KT 35/16 A2987 RMK A01 T03450159  RH  033%=      5-min Rain = 0
KSW1 130141Z 14012KT 34/16 A2987 RMK A01 T03440159  RH  033%=      5-min Rain = 0
KSW1 130142Z 14011KT 34/16 A2987 RMK A01 T03440159  RH  033%=      5-min Rain = 0
KSW1 130143Z 14010KT 34/16 A2988 RMK A01 T03440159  RH  033%=      5-min Rain = 0
KSW1 130144Z 14011KT 34/16 A2988 RMK A01 T03430158  RH  033%=      5-min Rain = 0
KSW1 130145Z 14011KT 34/16 A2988 RMK A01 T03430159  RH  033%=      5-min Rain = 0
KSW1 130146Z 14011KT 34/16 A2988 RMK A01 T03430159  RH  033%=      5-min Rain = 0
KSW1 130147Z 13011KT 34/16 A2988 RMK A01 T03420158  RH  033%=      5-min Rain = 0
KSW1 130148Z 14011KT 34/16 A2988 RMK A01 T03420158  RH  033%=      5-min Rain = 0
KSW1 130149Z 14012KT 34/16 A2988 RMK A01 T03420158  RH  033%=      5-min Rain = 0
KSW1 130150Z 14012KT 34/16 A2988 RMK A01 T03420158  RH  033%=      5-min Rain = 0
KSW1 130151Z 14011KT 34/16 A2988 RMK A01 T03420158  RH  033%=      5-min Rain = 0
KSW1 130152Z 14010KT 34/16 A2988 RMK A01 T03430158  RH  033%=      5-min Rain = 0
KSW1 130153Z 14010KT 34/16 A2988 RMK A01 T03420158  RH  033%=      5-min Rain = 0
KSW1 130154Z 14012KT 34/16 A2988 RMK A01 T03410158  RH  034%=      5-min Rain = 0
KSW1 130155Z 14011KT 34/16 A2988 RMK A01 T03410158  RH  034%=      5-min Rain = 0
KSW1 130156Z 14012KT 34/16 A2988 RMK A01 T03410158  RH  034%=      5-min Rain = 0
KSW1 130157Z 14011KT 34/16 A2988 RMK A01 T03410158  RH  033%=      5-min Rain = 0
KSW1 130158Z 14010KT 34/16 A2988 RMK A01 T03410158  RH  033%=      5-min Rain = 0
KSW1 130159Z 14010KT 34/16 A2988 RMK A01 T03400158  RH  034%=      5-min Rain = 0
KSW1 130200Z 14010KT 34/16 A2988 RMK A01 T03390157  RH  034%=      5-min Rain = 0
KSW1 130201Z 14009KT 34/16 A2988 RMK A01 T03390158  RH  034%=      5-min Rain = 0
KSW1 130202Z 14010KT 34/16 A2988 RMK A01 T03380157  RH  034%=      5-min Rain = 0
KSW1 130203Z 14010KT 34/16 A2988 RMK A01 T03380157  RH  034%=      5-min Rain = 0
KSW1 130204Z 14014KT 34/16 A2988 RMK A01 T03370157  RH  034%=      5-min Rain = 0
KSW1 130205Z 14011KT 34/16 A2988 RMK A01 T03380157  RH  034%=      5-min Rain = 0
KSW1 130206Z 14009KT 34/16 A2988 RMK A01 T03390157  RH  034%=      5-min Rain = 0
KSW1 130207Z 14010KT 34/16 A2988 RMK A01 T03380157  RH  034%=      5-min Rain = 0
KSW1 130208Z 14010KT 34/16 A2988 RMK A01 T03380157  RH  034%=      5-min Rain = 0
KSW1 130209Z 14009KT 34/16 A2988 RMK A01 T03380157  RH  034%=      5-min Rain = 0
KSW1 130210Z 14009KT 34/16 A2988 RMK A01 T03370156  RH  034%=      5-min Rain = 0
KSW1 130211Z 14010KT 34/16 A2988 RMK A01 T03370156  RH  034%=      5-min Rain = 0
KSW1 130212Z 14010KT 34/16 A2988 RMK A01 T03370156  RH  034%=      5-min Rain = 0
KSW1 130213Z 14010KT 34/16 A2988 RMK A01 T03370156  RH  034%=      5-min Rain = 0
KSW1 130214Z 14010KT 34/16 A2988 RMK A01 T03360156  RH  034%=      5-min Rain = 0
KSW1 130215Z 14011KT 34/16 A2988 RMK A01 T03370156  RH  034%=      5-min Rain = 0
KSW1 130216Z 14010KT 34/16 A2988 RMK A01 T03360156  RH  034%=      5-min Rain = 0
KSW1 130217Z 14010KT 34/16 A2988 RMK A01 T03360156  RH  034%=      5-min Rain = 0
KSW1 130218Z 14011KT 34/16 A2989 RMK A01 T03360156  RH  034%=      5-min Rain = 0
KSW1 130219Z 14010KT 34/16 A2989 RMK A01 T03360156  RH  034%=      5-min Rain = 0
KSW1 130220Z 14010KT 34/16 A2989 RMK A01 T03360156  RH  034%=      5-min Rain = 0
KSW1 130221Z 14008KT 34/16 A2989 RMK A01 T03350156  RH  034%=      5-min Rain = 0
KSW1 130222Z 14010KT 33/16 A2989 RMK A01 T03340156  RH  034%=      5-min Rain = 0
KSW1 130223Z 14010KT 33/16 A2989 RMK A01 T03340156  RH  034%=      5-min Rain = 0
KSW1 130224Z 14010KT 33/16 A2989 RMK A01 T03340156  RH  034%=      5-min Rain = 0
KSW1 130225Z 14010KT 33/16 A2989 RMK A01 T03340156  RH  034%=      5-min Rain = 0
KSW1 130226Z 14011KT 33/16 A2989 RMK A01 T03340156  RH  034%=      5-min Rain = 0
KSW1 130227Z 14010KT 33/16 A2989 RMK A01 T03340156  RH  034%=      5-min Rain = 0
KSW1 130228Z 14011KT 33/16 A2989 RMK A01 T03340156  RH  034%=      5-min Rain = 0
KSW1 130229Z 14009KT 33/16 A2989 RMK A01 T03340156  RH  034%=      5-min Rain = 0
KSW1 130230Z 14010KT 33/16 A2989 RMK A01 T03340155  RH  034%=      5-min Rain = 0
KSW1 130231Z 15011G16KT 33/16 A2989 RMK A01 T03340155  RH  034%=      5-min Rain = 0
KSW1 130232Z 15011KT 33/16 A2989 RMK A01 T03340155  RH  034%=      5-min Rain = 0
KSW1 130233Z 14010KT 33/16 A2989 RMK A01 T03340155  RH  034%=      5-min Rain = 0
KSW1 130234Z 14012KT 33/16 A2989 RMK A01 T03340155  RH  034%=      5-min Rain = 0
KSW1 130235Z 14011KT 33/16 A2989 RMK A01 T03340155  RH  034%=      5-min Rain = 0
KSW1 130236Z 14012KT 33/15 A2989 RMK A01 T03340154  RH  034%=      5-min Rain = 0
KSW1 130237Z 14011KT 34/15 A2989 RMK A01 T03350154  RH  034%=      5-min Rain = 0
KSW1 130238Z 14010KT 34/16 A2989 RMK A01 T03350155  RH  034%=      5-min Rain = 0
KSW1 130239Z 14012KT 33/15 A2989 RMK A01 T03340154  RH  034%=      5-min Rain = 0
KSW1 130240Z 14010KT 33/15 A2989 RMK A01 T03340154  RH  034%=      5-min Rain = 0
KSW1 130241Z 14009KT 33/15 A2989 RMK A01 T03340154  RH  034%=      5-min Rain = 0
KSW1 130242Z 14012KT 33/15 A2989 RMK A01 T03330154  RH  034%=      5-min Rain = 0
KSW1 130243Z 14013KT 33/15 A2989 RMK A01 T03330153  RH  034%=      5-min Rain = 0
KSW1 130244Z 14013KT 33/15 A2989 RMK A01 T03330152  RH  034%=      5-min Rain = 0
KSW1 130245Z 14013KT 33/15 A2989 RMK A01 T03330151  RH  033%=      5-min Rain = 0
KSW1 130246Z 14013KT 33/15 A2989 RMK A01 T03330150  RH  033%=      5-min Rain = 0
KSW1 130247Z 14014KT 33/15 A2989 RMK A01 T03330149  RH  033%=      5-min Rain = 0
KSW1 130248Z 14016KT 33/15 A2989 RMK A01 T03340148  RH  033%=      5-min Rain = 0
KSW1 130249Z 14013KT 34/15 A2989 RMK A01 T03350147  RH  032%=      5-min Rain = 0
KSW1 130250Z 14013KT 34/15 A2989 RMK A01 T03360147  RH  032%=      5-min Rain = 0
KSW1 130251Z 14013KT 34/15 A2989 RMK A01 T03360147  RH  032%=      5-min Rain = 0
KSW1 130252Z 14013KT 34/15 A2989 RMK A01 T03350147  RH  032%=      5-min Rain = 0
KSW1 130253Z 14011KT 34/15 A2989 RMK A01 T03350146  RH  032%=      5-min Rain = 0
KSW1 130254Z 14013KT 33/15 A2989 RMK A01 T03340146  RH  032%=      5-min Rain = 0
KSW1 130255Z 14013KT 33/15 A2989 RMK A01 T03340145  RH  032%=      5-min Rain = 0
KSW1 130256Z 14013KT 33/14 A2989 RMK A01 T03340144  RH  032%=      5-min Rain = 0
KSW1 130257Z 14014KT 33/14 A2989 RMK A01 T03340144  RH  032%=      5-min Rain = 0
KSW1 130258Z 14014KT 33/14 A2989 RMK A01 T03340144  RH  032%=      5-min Rain = 0
KSW1 130259Z 15015KT 33/14 A2989 RMK A01 T03340144  RH  032%=      5-min Rain = 0
KSW1 130300Z 14013G18KT 33/14 A2989 RMK A01 T03340144  RH  032%=      5-min Rain = 0
KSW1 130301Z 15015KT 33/14 A2989 RMK A01 T03340143  RH  032%=      5-min Rain = 0
KSW1 130302Z 14016KT 33/14 A2989 RMK A01 T03340143  RH  032%=      5-min Rain = 0
KSW1 130303Z 15015KT 34/14 A2989 RMK A01 T03350143  RH  032%=      5-min Rain = 0
KSW1 130304Z 14013KT 33/14 A2989 RMK A01 T03340143  RH  032%=      5-min Rain = 0
KSW1 130305Z 15015KT 33/14 A2989 RMK A01 T03340143  RH  032%=      5-min Rain = 0
KSW1 130306Z 15014KT 33/14 A2989 RMK A01 T03330142  RH  032%=      5-min Rain = 0
KSW1 130307Z 15012KT 33/14 A2989 RMK A01 T03330142  RH  032%=      5-min Rain = 0
KSW1 130308Z 15017G23KT 33/14 A2989 RMK A01 T03330142  RH  032%=      5-min Rain = 0
KSW1 130309Z 15016KT 33/14 A2989 RMK A01 T03330142  RH  031%=      5-min Rain = 0
KSW1 130310Z 15015KT 33/14 A2989 RMK A01 T03340141  RH  031%=      5-min Rain = 0
KSW1 130311Z 15016G21KT 33/14 A2989 RMK A01 T03340142  RH  031%=      5-min Rain = 0
KSW1 130312Z 15014G20KT 33/14 A2989 RMK A01 T03340141  RH  031%=      5-min Rain = 0
KSW1 130313Z 15015KT 33/14 A2989 RMK A01 T03340141  RH  031%=      5-min Rain = 0
KSW1 130314Z 15014G19KT 33/14 A2989 RMK A01 T03340141  RH  031%=      5-min Rain = 0
KSW1 130315Z 15015KT 33/14 A2989 RMK A01 T03330141  RH  031%=      5-min Rain = 0
KSW1 130316Z 15018KT 33/14 A2989 RMK A01 T03330141  RH  031%=      5-min Rain = 0
KSW1 130317Z 14015KT 33/14 A2989 RMK A01 T03330140  RH  031%=      5-min Rain = 0
KSW1 130318Z 15014KT 33/14 A2989 RMK A01 T03330140  RH  031%=      5-min Rain = 0
KSW1 130319Z 15015KT 33/14 A2989 RMK A01 T03330140  RH  031%=      5-min Rain = 0
KSW1 130320Z 15016G23KT 33/14 A2989 RMK A01 T03320140  RH  031%=      5-min Rain = 0
KSW1 130321Z 14016KT 33/14 A2989 RMK A01 T03320140  RH  031%=      5-min Rain = 0
KSW1 130322Z 14013KT 33/14 A2989 RMK A01 T03320140  RH  031%=      5-min Rain = 0
KSW1 130323Z 15014G20KT 33/14 A2989 RMK A01 T03310140  RH  032%=      5-min Rain = 0
KSW1 130324Z 14015KT 33/14 A2989 RMK A01 T03310140  RH  032%=      5-min Rain = 0
KSW1 130325Z 15013KT 33/14 A2989 RMK A01 T03310140  RH  032%=      5-min Rain = 0
KSW1 130326Z 15015KT 33/14 A2989 RMK A01 T03310140  RH  032%=      5-min Rain = 0
KSW1 130327Z 14014KT 33/14 A2989 RMK A01 T03310140  RH  032%=      5-min Rain = 0
KSW1 130328Z 15013KT 33/14 A2989 RMK A01 T03300140  RH  032%=      5-min Rain = 0
KSW1 130329Z 15013KT 33/14 A2989 RMK A01 T03290140  RH  032%=      5-min Rain = 0
KSW1 130330Z 14013G18KT 33/14 A2989 RMK A01 T03290140  RH  032%=      5-min Rain = 0
KSW1 130331Z 14015KT 33/14 A2989 RMK A01 T03290140  RH  032%=      5-min Rain = 0
KSW1 130332Z 15012KT 33/14 A2989 RMK A01 T03290140  RH  032%=      5-min Rain = 0
KSW1 130333Z 14013G18KT 33/14 A2989 RMK A01 T03290140  RH  032%=      5-min Rain = 0
KSW1 130334Z 15015G21KT 33/14 A2989 RMK A01 T03280140  RH  032%=      5-min Rain = 0
KSW1 130335Z 14013KT 33/14 A2989 RMK A01 T03280140  RH  032%=      5-min Rain = 0
KSW1 130336Z 14012KT 33/14 A2989 RMK A01 T03280140  RH  032%=      5-min Rain = 0
KSW1 130337Z 14014KT 33/14 A2989 RMK A01 T03280140  RH  032%=      5-min Rain = 0
KSW1 130338Z 14014KT 33/14 A2989 RMK A01 T03280140  RH  032%=      5-min Rain = 0
KSW1 130339Z 15014KT 33/14 A2989 RMK A01 T03280140  RH  032%=      5-min Rain = 0
KSW1 130340Z 15015KT 33/14 A2989 RMK A01 T03280140  RH  032%=      5-min Rain = 0
KSW1 130341Z 14015KT 33/14 A2989 RMK A01 T03280140  RH  032%=      5-min Rain = 0
KSW1 130342Z 14014KT 33/14 A2989 RMK A01 T03280140  RH  032%=      5-min Rain = 0
KSW1 130343Z 15016G21KT 33/14 A2989 RMK A01 T03280140  RH  032%=      5-min Rain = 0
KSW1 130344Z 14015KT 33/14 A2989 RMK A01 T03280139  RH  032%=      5-min Rain = 0
KSW1 130345Z 15015KT 33/14 A2989 RMK A01 T03280140  RH  032%=      5-min Rain = 0
KSW1 130346Z 15014G19KT 33/14 A2989 RMK A01 T03280140  RH  032%=      5-min Rain = 0
KSW1 130347Z 15018KT 33/14 A2989 RMK A01 T03280140  RH  032%=      5-min Rain = 0
KSW1 130348Z 15014G19KT 33/14 A299 RMK A01 T03280139  RH  032%=      5-min Rain = 0
KSW1 130349Z 15015KT 33/14 A299 RMK A01 T03280140  RH  032%=      5-min Rain = 0
KSW1 130350Z 15015KT 33/14 A299 RMK A01 T03270139  RH  032%=      5-min Rain = 0
KSW1 130351Z 15016KT 33/14 A299 RMK A01 T03270139  RH  032%=      5-min Rain = 0
KSW1 130352Z 15013KT 33/14 A299 RMK A01 T03270139  RH  032%=      5-min Rain = 0
KSW1 130353Z 15013KT 33/14 A299 RMK A01 T03260139  RH  032%=      5-min Rain = 0
KSW1 130354Z 15014G19KT 33/14 A299 RMK A01 T03260139  RH  032%=      5-min Rain = 0
KSW1 130355Z 15015KT 33/14 A299 RMK A01 T03250139  RH  032%=      5-min Rain = 0
KSW1 130356Z 15015KT 33/14 A299 RMK A01 T03250138  RH  032%=      5-min Rain = 0
KSW1 130357Z 15016KT 33/14 A299 RMK A01 T03260138  RH  032%=      5-min Rain = 0
KSW1 130358Z 15013G18KT 33/14 A299 RMK A01 T03260138  RH  032%=      5-min Rain = 0
KSW1 130359Z 15014G20KT 33/14 A299 RMK A01 T03260138  RH  032%=      5-min Rain = 0
KSW1 130400Z 15015G20KT 33/14 A299 RMK A01 T03260138  RH  032%=      5-min Rain = 0
KSW1 130401Z 15015KT 33/14 A299 RMK A01 T03260138  RH  032%=      5-min Rain = 0
KSW1 130402Z 15014KT 33/14 A299 RMK A01 T03260138  RH  032%=      5-min Rain = 0
KSW1 130403Z 15014KT 33/14 A299 RMK A01 T03260137  RH  032%=      5-min Rain = 0
KSW1 130404Z 15014G19KT 33/14 A299 RMK A01 T03260138  RH  032%=      5-min Rain = 0
KSW1 130405Z 15016G21KT 33/14 A299 RMK A01 T03250137  RH  032%=      5-min Rain = 0
KSW1 130406Z 15017KT 33/14 A299 RMK A01 T03250137  RH  032%=      5-min Rain = 0
KSW1 130407Z 15014G21KT 33/14 A299 RMK A01 T03250137  RH  032%=      5-min Rain = 0
KSW1 130408Z 16014G20KT 33/14 A299 RMK A01 T03260138  RH  032%=      5-min Rain = 0
KSW1 130409Z 15013KT 33/14 A299 RMK A01 T03250138  RH  032%=      5-min Rain = 0
KSW1 130410Z 16013KT 32/14 A299 RMK A01 T03240137  RH  032%=      5-min Rain = 0
KSW1 130411Z 15014KT 32/14 A299 RMK A01 T03230138  RH  032%=      5-min Rain = 0
KSW1 130412Z 15015G20KT 32/14 A299 RMK A01 T03230138  RH  032%=      5-min Rain = 0
KSW1 130413Z 15015KT 32/14 A299 RMK A01 T03230137  RH  032%=      5-min Rain = 0
KSW1 130414Z 15014KT 32/14 A299 RMK A01 T03230137  RH  032%=      5-min Rain = 0
KSW1 130415Z 15014KT 32/14 A2991 RMK A01 T03230137  RH  032%=      5-min Rain = 0
KSW1 130416Z 15014KT 32/14 A299 RMK A01 T03230137  RH  032%=      5-min Rain = 0
KSW1 130417Z 15014KT 32/14 A299 RMK A01 T03230137  RH  033%=      5-min Rain = 0
KSW1 130418Z 16012KT 32/14 A2991 RMK A01 T03220138  RH  033%=      5-min Rain = 0
KSW1 130419Z 16014G19KT 32/14 A2991 RMK A01 T03220138  RH  033%=      5-min Rain = 0
KSW1 130420Z 15013KT 32/14 A2991 RMK A01 T03220138  RH  033%=      5-min Rain = 0
KSW1 130421Z 15015KT 32/14 A2991 RMK A01 T03210138  RH  033%=      5-min Rain = 0
KSW1 130422Z 15014KT 32/14 A2991 RMK A01 T03210138  RH  033%=      5-min Rain = 0
KSW1 130423Z 15012KT 32/14 A2991 RMK A01 T03210138  RH  033%=      5-min Rain = 0
KSW1 130424Z 16013KT 32/14 A2991 RMK A01 T03210138  RH  033%=      5-min Rain = 0
KSW1 130425Z 15013KT 32/14 A2991 RMK A01 T03200138  RH  033%=      5-min Rain = 0
KSW1 130426Z 15012KT 32/14 A2991 RMK A01 T03200138  RH  033%=      5-min Rain = 0
KSW1 130427Z 16014KT 32/14 A2991 RMK A01 T03200138  RH  033%=      5-min Rain = 0
KSW1 130428Z 16014KT 32/14 A2991 RMK A01 T03190138  RH  033%=      5-min Rain = 0
KSW1 130429Z 16012KT 32/14 A2991 RMK A01 T03190138  RH  033%=      5-min Rain = 0
KSW1 130430Z 16016G22KT 32/14 A2991 RMK A01 T03190138  RH  033%=      5-min Rain = 0
KSW1 130431Z 16015KT 32/14 A2991 RMK A01 T03190139  RH  034%=      5-min Rain = 0
KSW1 130432Z 16014KT 32/14 A2991 RMK A01 T03180139  RH  034%=      5-min Rain = 0
KSW1 130433Z 15015G21KT 32/14 A2991 RMK A01 T03180139  RH  034%=      5-min Rain = 0
KSW1 130434Z 16016KT 32/14 A2991 RMK A01 T03170139  RH  034%=      5-min Rain = 0
KSW1 130435Z 16015KT 32/14 A2991 RMK A01 T03170139  RH  034%=      5-min Rain = 0
KSW1 130436Z 16015G20KT 32/14 A2991 RMK A01 T03170139  RH  034%=      5-min Rain = 0
KSW1 130437Z 16015KT 32/14 A2991 RMK A01 T03170140  RH  034%=      5-min Rain = 0
KSW1 130438Z 16013KT 32/14 A2992 RMK A01 T03170140  RH  034%=      5-min Rain = 0
KSW1 130439Z 16016KT 32/14 A2991 RMK A01 T03170140  RH  034%=      5-min Rain = 0
KSW1 130440Z 16014KT 32/14 A2991 RMK A01 T03170140  RH  034%=      5-min Rain = 0
KSW1 130441Z 16015KT 32/14 A2991 RMK A01 T03170140  RH  034%=      5-min Rain = 0
KSW1 130442Z 16015KT 32/14 A2992 RMK A01 T03170141  RH  034%=      5-min Rain = 0
KSW1 130443Z 16013KT 32/14 A2992 RMK A01 T03170141  RH  034%=      5-min Rain = 0
KSW1 130444Z 16016KT 32/14 A2992 RMK A01 T03160141  RH  034%=      5-min Rain = 0
KSW1 130445Z 16014KT 32/14 A2992 RMK A01 T03160141  RH  035%=      5-min Rain = 0
KSW1 130446Z 15013G20KT 32/14 A2992 RMK A01 T03160141  RH  035%=      5-min Rain = 0
KSW1 130447Z 16013KT 32/14 A2992 RMK A01 T03160141  RH  035%=      5-min Rain = 0
KSW1 130448Z 16013KT 32/14 A2992 RMK A01 T03150141  RH  035%=      5-min Rain = 0
KSW1 130449Z 15015KT 32/14 A2992 RMK A01 T03150141  RH  035%=      5-min Rain = 0
KSW1 130450Z 16013KT 31/14 A2992 RMK A01 T03140141  RH  035%=      5-min Rain = 0
KSW1 130451Z 16013KT 31/14 A2992 RMK A01 T03140142  RH  035%=      5-min Rain = 0
KSW1 130452Z 16014KT 31/14 A2992 RMK A01 T03140142  RH  035%=      5-min Rain = 0
KSW1 130453Z 16015KT 31/14 A2992 RMK A01 T03140142  RH  035%=      5-min Rain = 0
KSW1 130454Z 16016KT 31/14 A2992 RMK A01 T03140142  RH  035%=      5-min Rain = 0
KSW1 130455Z 16014KT 32/14 A2992 RMK A01 T03150142  RH  035%=      5-min Rain = 0
KSW1 130456Z 16014KT 32/14 A2992 RMK A01 T03150142  RH  035%=      5-min Rain = 0
KSW1 130457Z 16013KT 31/14 A2992 RMK A01 T03140142  RH  035%=      5-min Rain = 0
KSW1 130458Z 16014KT 31/14 A2992 RMK A01 T03140142  RH  035%=      5-min Rain = 0
KSW1 130459Z 16013KT 31/14 A2992 RMK A01 T03130142  RH  035%=      5-min Rain = 0

Page generated in 0.088 seconds.